<?xml version="1.0" encoding="UTF-8" standalone="no" ?>
<gpx xmlns="http://www.topografix.com/GPX/1/1" xmlns:xsi="http://www.w3.org/2001/XMLSchema-instance" xsi:schemaLocation="http://www.topografix.com/GPX/1/1 http://www.topografix.com/GPX/1/1/gpx.xsd" version="1.1" creator="VisuGPX - https://www.visugpx.com">
  <metadata>
    <name>Parc de Pichauris</name>
    <desc><![CDATA[Rando facile pour les enfants et les animaux.]]></desc>
  </metadata>
  <trk>
    <name><![CDATA[ACTIVE LOG 002]]></name>
    <trkseg>
      <trkpt lat="43.37039" lon="5.53658">
        <ele>340.44409179688</ele>
        <time>2019-05-19T09:15:02Z</time>
      </trkpt>
      <trkpt lat="43.37023" lon="5.53664">
        <ele>307.27856445312</ele>
        <time>2019-05-19T09:16:29Z</time>
      </trkpt>
      <trkpt lat="43.37027" lon="5.53659">
        <ele>307.27856445312</ele>
        <time>2019-05-19T09:16:34Z</time>
      </trkpt>
      <trkpt lat="43.37033" lon="5.53653">
        <ele>307.75927734375</ele>
        <time>2019-05-19T09:16:44Z</time>
      </trkpt>
      <trkpt lat="43.37037" lon="5.53636">
        <ele>304.39465332031</ele>
        <time>2019-05-19T09:17:01Z</time>
      </trkpt>
      <trkpt lat="43.37051" lon="5.53605">
        <ele>300.54931640625</ele>
        <time>2019-05-19T09:17:20Z</time>
      </trkpt>
      <trkpt lat="43.37053" lon="5.53595">
        <ele>299.10729980469</ele>
        <time>2019-05-19T09:17:26Z</time>
      </trkpt>
      <trkpt lat="43.37053" lon="5.53584">
        <ele>299.58801269531</ele>
        <time>2019-05-19T09:17:31Z</time>
      </trkpt>
      <trkpt lat="43.37061" lon="5.53577">
        <ele>299.58801269531</ele>
        <time>2019-05-19T09:17:38Z</time>
      </trkpt>
      <trkpt lat="43.37059" lon="5.53569">
        <ele>302.95251464844</ele>
        <time>2019-05-19T09:17:44Z</time>
      </trkpt>
      <trkpt lat="43.37063" lon="5.5355">
        <ele>305.35595703125</ele>
        <time>2019-05-19T09:17:56Z</time>
      </trkpt>
      <trkpt lat="43.37068" lon="5.53545">
        <ele>306.31726074219</ele>
        <time>2019-05-19T09:18:10Z</time>
      </trkpt>
      <trkpt lat="43.37069" lon="5.53551">
        <ele>308.23986816406</ele>
        <time>2019-05-19T09:18:23Z</time>
      </trkpt>
      <trkpt lat="43.37066" lon="5.53573">
        <ele>307.27856445312</ele>
        <time>2019-05-19T09:18:35Z</time>
      </trkpt>
      <trkpt lat="43.3706" lon="5.53583">
        <ele>307.27856445312</ele>
        <time>2019-05-19T09:18:48Z</time>
      </trkpt>
      <trkpt lat="43.37058" lon="5.53587">
        <ele>306.7978515625</ele>
        <time>2019-05-19T09:18:52Z</time>
      </trkpt>
      <trkpt lat="43.37054" lon="5.5359">
        <ele>305.83666992188</ele>
        <time>2019-05-19T09:18:55Z</time>
      </trkpt>
      <trkpt lat="43.37051" lon="5.53596">
        <ele>304.39465332031</ele>
        <time>2019-05-19T09:19:05Z</time>
      </trkpt>
      <trkpt lat="43.37048" lon="5.53602">
        <ele>303.43322753906</ele>
        <time>2019-05-19T09:19:10Z</time>
      </trkpt>
      <trkpt lat="43.37048" lon="5.53607">
        <ele>302.95251464844</ele>
        <time>2019-05-19T09:19:13Z</time>
      </trkpt>
      <trkpt lat="43.37046" lon="5.53608">
        <ele>302.95251464844</ele>
        <time>2019-05-19T09:19:15Z</time>
      </trkpt>
      <trkpt lat="43.37035" lon="5.53619">
        <ele>301.99133300781</ele>
        <time>2019-05-19T09:19:27Z</time>
      </trkpt>
      <trkpt lat="43.37034" lon="5.53621">
        <ele>302.47192382812</ele>
        <time>2019-05-19T09:19:29Z</time>
      </trkpt>
      <trkpt lat="43.37029" lon="5.53626">
        <ele>301.51062011719</ele>
        <time>2019-05-19T09:19:41Z</time>
      </trkpt>
      <trkpt lat="43.37022" lon="5.53629">
        <ele>302.47192382812</ele>
        <time>2019-05-19T09:20:00Z</time>
      </trkpt>
      <trkpt lat="43.37021" lon="5.53637">
        <ele>302.47192382812</ele>
        <time>2019-05-19T09:20:13Z</time>
      </trkpt>
      <trkpt lat="43.37019" lon="5.53659">
        <ele>303.43322753906</ele>
        <time>2019-05-19T09:20:32Z</time>
      </trkpt>
      <trkpt lat="43.37019" lon="5.53661">
        <ele>303.43322753906</ele>
        <time>2019-05-19T09:20:35Z</time>
      </trkpt>
      <trkpt lat="43.37018" lon="5.53663">
        <ele>302.47192382812</ele>
        <time>2019-05-19T09:20:57Z</time>
      </trkpt>
      <trkpt lat="43.37017" lon="5.53661">
        <ele>302.47192382812</ele>
        <time>2019-05-19T09:32:59Z</time>
      </trkpt>
      <trkpt lat="43.37015" lon="5.53676">
        <ele>306.31726074219</ele>
        <time>2019-05-19T10:07:57Z</time>
      </trkpt>
      <trkpt lat="43.3701" lon="5.5369">
        <ele>310.16247558594</ele>
        <time>2019-05-19T10:08:17Z</time>
      </trkpt>
      <trkpt lat="43.37013" lon="5.53705">
        <ele>308.23986816406</ele>
        <time>2019-05-19T10:08:37Z</time>
      </trkpt>
      <trkpt lat="43.3701" lon="5.53723">
        <ele>310.16247558594</ele>
        <time>2019-05-19T10:09:01Z</time>
      </trkpt>
      <trkpt lat="43.36994" lon="5.53723">
        <ele>311.6044921875</ele>
        <time>2019-05-19T10:09:24Z</time>
      </trkpt>
      <trkpt lat="43.36979" lon="5.53733">
        <ele>313.04650878906</ele>
        <time>2019-05-19T10:09:46Z</time>
      </trkpt>
      <trkpt lat="43.36968" lon="5.5373">
        <ele>314.96911621094</ele>
        <time>2019-05-19T10:10:02Z</time>
      </trkpt>
      <trkpt lat="43.36958" lon="5.5373">
        <ele>315.44982910156</ele>
        <time>2019-05-19T10:10:14Z</time>
      </trkpt>
      <trkpt lat="43.36948" lon="5.53735">
        <ele>318.33361816406</ele>
        <time>2019-05-19T10:10:32Z</time>
      </trkpt>
      <trkpt lat="43.36938" lon="5.53748">
        <ele>321.69836425781</ele>
        <time>2019-05-19T10:10:45Z</time>
      </trkpt>
      <trkpt lat="43.36928" lon="5.53766">
        <ele>325.54357910156</ele>
        <time>2019-05-19T10:11:03Z</time>
      </trkpt>
      <trkpt lat="43.3692" lon="5.53779">
        <ele>326.5048828125</ele>
        <time>2019-05-19T10:11:15Z</time>
      </trkpt>
      <trkpt lat="43.36912" lon="5.53788">
        <ele>326.02416992188</ele>
        <time>2019-05-19T10:11:23Z</time>
      </trkpt>
      <trkpt lat="43.36907" lon="5.53793">
        <ele>325.06298828125</ele>
        <time>2019-05-19T10:11:29Z</time>
      </trkpt>
      <trkpt lat="43.36905" lon="5.538">
        <ele>323.62097167969</ele>
        <time>2019-05-19T10:11:34Z</time>
      </trkpt>
      <trkpt lat="43.369" lon="5.53806">
        <ele>322.17895507812</ele>
        <time>2019-05-19T10:11:40Z</time>
      </trkpt>
      <trkpt lat="43.36897" lon="5.53813">
        <ele>321.69836425781</ele>
        <time>2019-05-19T10:11:45Z</time>
      </trkpt>
      <trkpt lat="43.36889" lon="5.53822">
        <ele>323.14038085938</ele>
        <time>2019-05-19T10:11:58Z</time>
      </trkpt>
      <trkpt lat="43.36876" lon="5.53829">
        <ele>326.02416992188</ele>
        <time>2019-05-19T10:12:14Z</time>
      </trkpt>
      <trkpt lat="43.36868" lon="5.53837">
        <ele>327.94677734375</ele>
        <time>2019-05-19T10:12:31Z</time>
      </trkpt>
      <trkpt lat="43.3686" lon="5.53836">
        <ele>328.90832519531</ele>
        <time>2019-05-19T10:12:42Z</time>
      </trkpt>
      <trkpt lat="43.36851" lon="5.53827">
        <ele>330.35021972656</ele>
        <time>2019-05-19T10:12:54Z</time>
      </trkpt>
      <trkpt lat="43.36843" lon="5.53808">
        <ele>328.90832519531</ele>
        <time>2019-05-19T10:13:09Z</time>
      </trkpt>
      <trkpt lat="43.36838" lon="5.53798">
        <ele>328.42761230469</ele>
        <time>2019-05-19T10:13:25Z</time>
      </trkpt>
      <trkpt lat="43.36837" lon="5.53791">
        <ele>328.42761230469</ele>
        <time>2019-05-19T10:13:35Z</time>
      </trkpt>
      <trkpt lat="43.36835" lon="5.53783">
        <ele>328.42761230469</ele>
        <time>2019-05-19T10:13:38Z</time>
      </trkpt>
      <trkpt lat="43.36837" lon="5.53771">
        <ele>327.46618652344</ele>
        <time>2019-05-19T10:13:47Z</time>
      </trkpt>
      <trkpt lat="43.36838" lon="5.53768">
        <ele>326.5048828125</ele>
        <time>2019-05-19T10:13:50Z</time>
      </trkpt>
      <trkpt lat="43.36844" lon="5.53751">
        <ele>324.58227539062</ele>
        <time>2019-05-19T10:14:05Z</time>
      </trkpt>
      <trkpt lat="43.36846" lon="5.53747">
        <ele>324.1015625</ele>
        <time>2019-05-19T10:14:09Z</time>
      </trkpt>
      <trkpt lat="43.36851" lon="5.53734">
        <ele>325.06298828125</ele>
        <time>2019-05-19T10:14:21Z</time>
      </trkpt>
      <trkpt lat="43.3686" lon="5.5371">
        <ele>323.62097167969</ele>
        <time>2019-05-19T10:14:41Z</time>
      </trkpt>
      <trkpt lat="43.36862" lon="5.53705">
        <ele>322.65966796875</ele>
        <time>2019-05-19T10:14:46Z</time>
      </trkpt>
      <trkpt lat="43.36863" lon="5.53702">
        <ele>323.14038085938</ele>
        <time>2019-05-19T10:14:48Z</time>
      </trkpt>
      <trkpt lat="43.36869" lon="5.53683">
        <ele>324.58227539062</ele>
        <time>2019-05-19T10:15:02Z</time>
      </trkpt>
      <trkpt lat="43.36869" lon="5.53682">
        <ele>324.1015625</ele>
        <time>2019-05-19T10:15:03Z</time>
      </trkpt>
      <trkpt lat="43.36873" lon="5.53669">
        <ele>325.06298828125</ele>
        <time>2019-05-19T10:15:13Z</time>
      </trkpt>
      <trkpt lat="43.36875" lon="5.53662">
        <ele>326.02416992188</ele>
        <time>2019-05-19T10:15:18Z</time>
      </trkpt>
      <trkpt lat="43.36876" lon="5.53644">
        <ele>327.46618652344</ele>
        <time>2019-05-19T10:15:30Z</time>
      </trkpt>
      <trkpt lat="43.36876" lon="5.53641">
        <ele>327.46618652344</ele>
        <time>2019-05-19T10:15:32Z</time>
      </trkpt>
      <trkpt lat="43.36873" lon="5.53625">
        <ele>326.02416992188</ele>
        <time>2019-05-19T10:15:44Z</time>
      </trkpt>
      <trkpt lat="43.36875" lon="5.53614">
        <ele>325.54357910156</ele>
        <time>2019-05-19T10:15:52Z</time>
      </trkpt>
      <trkpt lat="43.36879" lon="5.53609">
        <ele>324.1015625</ele>
        <time>2019-05-19T10:15:57Z</time>
      </trkpt>
      <trkpt lat="43.36882" lon="5.53601">
        <ele>324.1015625</ele>
        <time>2019-05-19T10:16:04Z</time>
      </trkpt>
      <trkpt lat="43.36883" lon="5.53599">
        <ele>323.62097167969</ele>
        <time>2019-05-19T10:16:06Z</time>
      </trkpt>
      <trkpt lat="43.36885" lon="5.53596">
        <ele>323.14038085938</ele>
        <time>2019-05-19T10:16:09Z</time>
      </trkpt>
      <trkpt lat="43.36888" lon="5.53592">
        <ele>322.65966796875</ele>
        <time>2019-05-19T10:16:12Z</time>
      </trkpt>
      <trkpt lat="43.36888" lon="5.53583">
        <ele>322.65966796875</ele>
        <time>2019-05-19T10:16:18Z</time>
      </trkpt>
      <trkpt lat="43.36878" lon="5.53566">
        <ele>321.2177734375</ele>
        <time>2019-05-19T10:16:33Z</time>
      </trkpt>
      <trkpt lat="43.36865" lon="5.53554">
        <ele>322.17895507812</ele>
        <time>2019-05-19T10:16:48Z</time>
      </trkpt>
      <trkpt lat="43.36858" lon="5.53546">
        <ele>323.14038085938</ele>
        <time>2019-05-19T10:17:00Z</time>
      </trkpt>
      <trkpt lat="43.36854" lon="5.53539">
        <ele>324.58227539062</ele>
        <time>2019-05-19T10:17:06Z</time>
      </trkpt>
      <trkpt lat="43.3685" lon="5.53536">
        <ele>326.98559570312</ele>
        <time>2019-05-19T10:17:11Z</time>
      </trkpt>
      <trkpt lat="43.36838" lon="5.53523">
        <ele>332.27282714844</ele>
        <time>2019-05-19T10:17:25Z</time>
      </trkpt>
      <trkpt lat="43.36832" lon="5.53519">
        <ele>335.15673828125</ele>
        <time>2019-05-19T10:17:36Z</time>
      </trkpt>
      <trkpt lat="43.36824" lon="5.53505">
        <ele>335.63732910156</ele>
        <time>2019-05-19T10:17:47Z</time>
      </trkpt>
      <trkpt lat="43.36821" lon="5.53503">
        <ele>332.27282714844</ele>
        <time>2019-05-19T10:17:58Z</time>
      </trkpt>
      <trkpt lat="43.36821" lon="5.53504">
        <ele>332.27282714844</ele>
        <time>2019-05-19T10:18:36Z</time>
      </trkpt>
      <trkpt lat="43.36821" lon="5.53503">
        <ele>332.27282714844</ele>
        <time>2019-05-19T10:18:50Z</time>
      </trkpt>
      <trkpt lat="43.36819" lon="5.53496">
        <ele>327.94677734375</ele>
        <time>2019-05-19T10:19:04Z</time>
      </trkpt>
      <trkpt lat="43.36822" lon="5.53492">
        <ele>324.58227539062</ele>
        <time>2019-05-19T10:19:17Z</time>
      </trkpt>
      <trkpt lat="43.36823" lon="5.53491">
        <ele>324.1015625</ele>
        <time>2019-05-19T10:19:18Z</time>
      </trkpt>
      <trkpt lat="43.36826" lon="5.53486">
        <ele>325.06298828125</ele>
        <time>2019-05-19T10:19:22Z</time>
      </trkpt>
      <trkpt lat="43.36827" lon="5.53482">
        <ele>325.54357910156</ele>
        <time>2019-05-19T10:19:25Z</time>
      </trkpt>
      <trkpt lat="43.36834" lon="5.53468">
        <ele>323.14038085938</ele>
        <time>2019-05-19T10:19:37Z</time>
      </trkpt>
      <trkpt lat="43.36836" lon="5.53462">
        <ele>323.14038085938</ele>
        <time>2019-05-19T10:19:42Z</time>
      </trkpt>
      <trkpt lat="43.36839" lon="5.53458">
        <ele>324.1015625</ele>
        <time>2019-05-19T10:19:45Z</time>
      </trkpt>
      <trkpt lat="43.36845" lon="5.53442">
        <ele>322.17895507812</ele>
        <time>2019-05-19T10:20:01Z</time>
      </trkpt>
      <trkpt lat="43.36846" lon="5.53441">
        <ele>322.17895507812</ele>
        <time>2019-05-19T10:20:03Z</time>
      </trkpt>
      <trkpt lat="43.36849" lon="5.53429">
        <ele>322.65966796875</ele>
        <time>2019-05-19T10:20:15Z</time>
      </trkpt>
      <trkpt lat="43.36849" lon="5.53424">
        <ele>321.69836425781</ele>
        <time>2019-05-19T10:20:18Z</time>
      </trkpt>
      <trkpt lat="43.36849" lon="5.53414">
        <ele>323.62097167969</ele>
        <time>2019-05-19T10:20:27Z</time>
      </trkpt>
      <trkpt lat="43.36852" lon="5.53406">
        <ele>326.98559570312</ele>
        <time>2019-05-19T10:20:33Z</time>
      </trkpt>
      <trkpt lat="43.36852" lon="5.534">
        <ele>327.94677734375</ele>
        <time>2019-05-19T10:20:37Z</time>
      </trkpt>
      <trkpt lat="43.36855" lon="5.53395">
        <ele>328.90832519531</ele>
        <time>2019-05-19T10:20:41Z</time>
      </trkpt>
      <trkpt lat="43.36861" lon="5.53378">
        <ele>331.79211425781</ele>
        <time>2019-05-19T10:20:54Z</time>
      </trkpt>
      <trkpt lat="43.36861" lon="5.53367">
        <ele>332.75354003906</ele>
        <time>2019-05-19T10:21:03Z</time>
      </trkpt>
      <trkpt lat="43.36862" lon="5.53364">
        <ele>332.75354003906</ele>
        <time>2019-05-19T10:21:06Z</time>
      </trkpt>
      <trkpt lat="43.3686" lon="5.53356">
        <ele>333.23413085938</ele>
        <time>2019-05-19T10:21:12Z</time>
      </trkpt>
      <trkpt lat="43.36846" lon="5.53346">
        <ele>335.15673828125</ele>
        <time>2019-05-19T10:21:29Z</time>
      </trkpt>
      <trkpt lat="43.36842" lon="5.53344">
        <ele>336.59887695312</ele>
        <time>2019-05-19T10:21:36Z</time>
      </trkpt>
      <trkpt lat="43.36834" lon="5.53341">
        <ele>338.04077148438</ele>
        <time>2019-05-19T10:21:46Z</time>
      </trkpt>
      <trkpt lat="43.36821" lon="5.53339">
        <ele>340.44409179688</ele>
        <time>2019-05-19T10:22:03Z</time>
      </trkpt>
      <trkpt lat="43.36815" lon="5.53334">
        <ele>340.44409179688</ele>
        <time>2019-05-19T10:22:11Z</time>
      </trkpt>
      <trkpt lat="43.36807" lon="5.53332">
        <ele>341.4052734375</ele>
        <time>2019-05-19T10:22:21Z</time>
      </trkpt>
      <trkpt lat="43.36795" lon="5.53325">
        <ele>343.32788085938</ele>
        <time>2019-05-19T10:22:35Z</time>
      </trkpt>
      <trkpt lat="43.36782" lon="5.53318">
        <ele>347.17321777344</ele>
        <time>2019-05-19T10:22:50Z</time>
      </trkpt>
      <trkpt lat="43.36767" lon="5.53306">
        <ele>350.53784179688</ele>
        <time>2019-05-19T10:23:08Z</time>
      </trkpt>
      <trkpt lat="43.36758" lon="5.53295">
        <ele>351.49914550781</ele>
        <time>2019-05-19T10:23:20Z</time>
      </trkpt>
      <trkpt lat="43.36747" lon="5.53278">
        <ele>354.86376953125</ele>
        <time>2019-05-19T10:23:38Z</time>
      </trkpt>
      <trkpt lat="43.36738" lon="5.53269">
        <ele>357.26708984375</ele>
        <time>2019-05-19T10:23:54Z</time>
      </trkpt>
      <trkpt lat="43.36732" lon="5.53267">
        <ele>357.74780273438</ele>
        <time>2019-05-19T10:24:01Z</time>
      </trkpt>
      <trkpt lat="43.36719" lon="5.53268">
        <ele>358.22839355469</ele>
        <time>2019-05-19T10:24:17Z</time>
      </trkpt>
      <trkpt lat="43.36702" lon="5.53277">
        <ele>359.18969726562</ele>
        <time>2019-05-19T10:24:34Z</time>
      </trkpt>
      <trkpt lat="43.36697" lon="5.53281">
        <ele>360.15112304688</ele>
        <time>2019-05-19T10:24:40Z</time>
      </trkpt>
      <trkpt lat="43.36694" lon="5.53283">
        <ele>360.15112304688</ele>
        <time>2019-05-19T10:24:43Z</time>
      </trkpt>
      <trkpt lat="43.3669" lon="5.53284">
        <ele>360.15112304688</ele>
        <time>2019-05-19T10:24:47Z</time>
      </trkpt>
      <trkpt lat="43.36683" lon="5.53291">
        <ele>361.11242675781</ele>
        <time>2019-05-19T10:24:57Z</time>
      </trkpt>
      <trkpt lat="43.36682" lon="5.53293">
        <ele>361.11242675781</ele>
        <time>2019-05-19T10:24:59Z</time>
      </trkpt>
      <trkpt lat="43.36677" lon="5.53296">
        <ele>361.11242675781</ele>
        <time>2019-05-19T10:25:03Z</time>
      </trkpt>
      <trkpt lat="43.3667" lon="5.53301">
        <ele>361.11242675781</ele>
        <time>2019-05-19T10:25:10Z</time>
      </trkpt>
      <trkpt lat="43.36656" lon="5.53325">
        <ele>359.18969726562</ele>
        <time>2019-05-19T10:25:33Z</time>
      </trkpt>
      <trkpt lat="43.36649" lon="5.53344">
        <ele>359.18969726562</ele>
        <time>2019-05-19T10:25:49Z</time>
      </trkpt>
      <trkpt lat="43.3664" lon="5.53358">
        <ele>358.708984375</ele>
        <time>2019-05-19T10:26:06Z</time>
      </trkpt>
      <trkpt lat="43.36635" lon="5.53361">
        <ele>358.708984375</ele>
        <time>2019-05-19T10:26:17Z</time>
      </trkpt>
      <trkpt lat="43.36628" lon="5.53364">
        <ele>358.708984375</ele>
        <time>2019-05-19T10:26:25Z</time>
      </trkpt>
      <trkpt lat="43.36621" lon="5.53367">
        <ele>358.22839355469</ele>
        <time>2019-05-19T10:26:34Z</time>
      </trkpt>
      <trkpt lat="43.36609" lon="5.53369">
        <ele>359.18969726562</ele>
        <time>2019-05-19T10:26:47Z</time>
      </trkpt>
      <trkpt lat="43.36601" lon="5.53371">
        <ele>359.18969726562</ele>
        <time>2019-05-19T10:26:55Z</time>
      </trkpt>
      <trkpt lat="43.36591" lon="5.53371">
        <ele>357.74780273438</ele>
        <time>2019-05-19T10:27:09Z</time>
      </trkpt>
      <trkpt lat="43.36576" lon="5.53379">
        <ele>358.22839355469</ele>
        <time>2019-05-19T10:27:26Z</time>
      </trkpt>
      <trkpt lat="43.36564" lon="5.53383">
        <ele>357.74780273438</ele>
        <time>2019-05-19T10:27:41Z</time>
      </trkpt>
      <trkpt lat="43.36562" lon="5.53384">
        <ele>357.74780273438</ele>
        <time>2019-05-19T10:27:43Z</time>
      </trkpt>
      <trkpt lat="43.36553" lon="5.53396">
        <ele>357.74780273438</ele>
        <time>2019-05-19T10:27:56Z</time>
      </trkpt>
      <trkpt lat="43.36552" lon="5.53398">
        <ele>357.74780273438</ele>
        <time>2019-05-19T10:27:58Z</time>
      </trkpt>
      <trkpt lat="43.36536" lon="5.53406">
        <ele>358.708984375</ele>
        <time>2019-05-19T10:28:17Z</time>
      </trkpt>
      <trkpt lat="43.36535" lon="5.53407">
        <ele>358.708984375</ele>
        <time>2019-05-19T10:28:18Z</time>
      </trkpt>
      <trkpt lat="43.3653" lon="5.53409">
        <ele>359.18969726562</ele>
        <time>2019-05-19T10:28:23Z</time>
      </trkpt>
      <trkpt lat="43.36522" lon="5.53414">
        <ele>358.708984375</ele>
        <time>2019-05-19T10:28:31Z</time>
      </trkpt>
      <trkpt lat="43.36512" lon="5.53419">
        <ele>360.15112304688</ele>
        <time>2019-05-19T10:28:41Z</time>
      </trkpt>
      <trkpt lat="43.36508" lon="5.53422">
        <ele>361.11242675781</ele>
        <time>2019-05-19T10:28:45Z</time>
      </trkpt>
      <trkpt lat="43.36496" lon="5.53427">
        <ele>363.03503417969</ele>
        <time>2019-05-19T10:28:58Z</time>
      </trkpt>
      <trkpt lat="43.36482" lon="5.5344">
        <ele>368.80297851562</ele>
        <time>2019-05-19T10:29:16Z</time>
      </trkpt>
      <trkpt lat="43.36474" lon="5.53448">
        <ele>369.76428222656</ele>
        <time>2019-05-19T10:29:34Z</time>
      </trkpt>
      <trkpt lat="43.36472" lon="5.53447">
        <ele>369.76428222656</ele>
        <time>2019-05-19T10:30:18Z</time>
      </trkpt>
      <trkpt lat="43.3646" lon="5.53453">
        <ele>372.16748046875</ele>
        <time>2019-05-19T10:30:34Z</time>
      </trkpt>
      <trkpt lat="43.36449" lon="5.5346">
        <ele>374.09008789062</ele>
        <time>2019-05-19T10:30:49Z</time>
      </trkpt>
      <trkpt lat="43.36438" lon="5.53465">
        <ele>373.60949707031</ele>
        <time>2019-05-19T10:31:04Z</time>
      </trkpt>
      <trkpt lat="43.36428" lon="5.53467">
        <ele>376.01281738281</ele>
        <time>2019-05-19T10:31:20Z</time>
      </trkpt>
      <trkpt lat="43.36417" lon="5.5347">
        <ele>380.33874511719</ele>
        <time>2019-05-19T10:31:38Z</time>
      </trkpt>
      <trkpt lat="43.36412" lon="5.53469">
        <ele>381.30004882812</ele>
        <time>2019-05-19T10:31:44Z</time>
      </trkpt>
      <trkpt lat="43.36405" lon="5.53466">
        <ele>382.26135253906</ele>
        <time>2019-05-19T10:31:51Z</time>
      </trkpt>
      <trkpt lat="43.36394" lon="5.53463">
        <ele>384.18408203125</ele>
        <time>2019-05-19T10:32:06Z</time>
      </trkpt>
      <trkpt lat="43.36381" lon="5.53458">
        <ele>384.66479492188</ele>
        <time>2019-05-19T10:32:24Z</time>
      </trkpt>
      <trkpt lat="43.36368" lon="5.53449">
        <ele>386.58740234375</ele>
        <time>2019-05-19T10:32:40Z</time>
      </trkpt>
      <trkpt lat="43.3636" lon="5.53446">
        <ele>388.99060058594</ele>
        <time>2019-05-19T10:32:56Z</time>
      </trkpt>
      <trkpt lat="43.36343" lon="5.53447">
        <ele>392.8359375</ele>
        <time>2019-05-19T10:33:23Z</time>
      </trkpt>
      <trkpt lat="43.36331" lon="5.53453">
        <ele>394.75854492188</ele>
        <time>2019-05-19T10:33:40Z</time>
      </trkpt>
      <trkpt lat="43.36321" lon="5.53458">
        <ele>398.12316894531</ele>
        <time>2019-05-19T10:33:54Z</time>
      </trkpt>
      <trkpt lat="43.36305" lon="5.53464">
        <ele>401.96850585938</ele>
        <time>2019-05-19T10:34:09Z</time>
      </trkpt>
      <trkpt lat="43.36296" lon="5.53471">
        <ele>405.81372070312</ele>
        <time>2019-05-19T10:34:21Z</time>
      </trkpt>
      <trkpt lat="43.36283" lon="5.53484">
        <ele>409.65905761719</ele>
        <time>2019-05-19T10:34:39Z</time>
      </trkpt>
      <trkpt lat="43.36274" lon="5.5349">
        <ele>410.62023925781</ele>
        <time>2019-05-19T10:34:57Z</time>
      </trkpt>
      <trkpt lat="43.36274" lon="5.53491">
        <ele>411.10095214844</ele>
        <time>2019-05-19T10:35:01Z</time>
      </trkpt>
      <trkpt lat="43.36272" lon="5.53504">
        <ele>409.17834472656</ele>
        <time>2019-05-19T10:35:14Z</time>
      </trkpt>
      <trkpt lat="43.36274" lon="5.53513">
        <ele>409.17834472656</ele>
        <time>2019-05-19T10:35:29Z</time>
      </trkpt>
      <trkpt lat="43.36271" lon="5.53504">
        <ele>409.65905761719</ele>
        <time>2019-05-19T10:35:42Z</time>
      </trkpt>
      <trkpt lat="43.36261" lon="5.53515">
        <ele>412.54284667969</ele>
        <time>2019-05-19T10:35:58Z</time>
      </trkpt>
      <trkpt lat="43.36256" lon="5.53525">
        <ele>413.02355957031</ele>
        <time>2019-05-19T10:36:08Z</time>
      </trkpt>
      <trkpt lat="43.36246" lon="5.53539">
        <ele>412.54284667969</ele>
        <time>2019-05-19T10:36:24Z</time>
      </trkpt>
      <trkpt lat="43.36244" lon="5.53546">
        <ele>413.98486328125</ele>
        <time>2019-05-19T10:36:41Z</time>
      </trkpt>
      <trkpt lat="43.36242" lon="5.53549">
        <ele>414.46545410156</ele>
        <time>2019-05-19T10:37:22Z</time>
      </trkpt>
      <trkpt lat="43.36246" lon="5.53552">
        <ele>411.58166503906</ele>
        <time>2019-05-19T10:39:47Z</time>
      </trkpt>
      <trkpt lat="43.3625" lon="5.53552">
        <ele>410.1396484375</ele>
        <time>2019-05-19T10:40:00Z</time>
      </trkpt>
      <trkpt lat="43.3625" lon="5.53551">
        <ele>409.65905761719</ele>
        <time>2019-05-19T10:40:14Z</time>
      </trkpt>
      <trkpt lat="43.3625" lon="5.53552">
        <ele>409.65905761719</ele>
        <time>2019-05-19T10:40:27Z</time>
      </trkpt>
      <trkpt lat="43.36241" lon="5.53549">
        <ele>409.65905761719</ele>
        <time>2019-05-19T10:40:42Z</time>
      </trkpt>
      <trkpt lat="43.3624" lon="5.53548">
        <ele>410.1396484375</ele>
        <time>2019-05-19T10:41:00Z</time>
      </trkpt>
      <trkpt lat="43.36234" lon="5.53553">
        <ele>410.62023925781</ele>
        <time>2019-05-19T10:43:25Z</time>
      </trkpt>
      <trkpt lat="43.36218" lon="5.53562">
        <ele>411.58166503906</ele>
        <time>2019-05-19T10:43:42Z</time>
      </trkpt>
      <trkpt lat="43.36206" lon="5.5357">
        <ele>413.98486328125</ele>
        <time>2019-05-19T10:43:57Z</time>
      </trkpt>
      <trkpt lat="43.36196" lon="5.53586">
        <ele>414.94616699219</ele>
        <time>2019-05-19T10:44:16Z</time>
      </trkpt>
      <trkpt lat="43.36185" lon="5.53595">
        <ele>414.46545410156</ele>
        <time>2019-05-19T10:44:29Z</time>
      </trkpt>
      <trkpt lat="43.36178" lon="5.53598">
        <ele>414.46545410156</ele>
        <time>2019-05-19T10:44:38Z</time>
      </trkpt>
      <trkpt lat="43.36162" lon="5.53588">
        <ele>414.94616699219</ele>
        <time>2019-05-19T10:44:53Z</time>
      </trkpt>
      <trkpt lat="43.3616" lon="5.53586">
        <ele>414.94616699219</ele>
        <time>2019-05-19T10:44:55Z</time>
      </trkpt>
      <trkpt lat="43.36156" lon="5.53574">
        <ele>414.94616699219</ele>
        <time>2019-05-19T10:45:08Z</time>
      </trkpt>
      <trkpt lat="43.36143" lon="5.53552">
        <ele>415.90747070312</ele>
        <time>2019-05-19T10:45:44Z</time>
      </trkpt>
      <trkpt lat="43.36137" lon="5.53534">
        <ele>417.349609375</ele>
        <time>2019-05-19T10:46:00Z</time>
      </trkpt>
      <trkpt lat="43.36136" lon="5.53532">
        <ele>417.349609375</ele>
        <time>2019-05-19T10:46:02Z</time>
      </trkpt>
      <trkpt lat="43.36128" lon="5.5351">
        <ele>416.86889648438</ele>
        <time>2019-05-19T10:46:18Z</time>
      </trkpt>
      <trkpt lat="43.36109" lon="5.53501">
        <ele>416.38818359375</ele>
        <time>2019-05-19T10:46:40Z</time>
      </trkpt>
      <trkpt lat="43.36096" lon="5.53504">
        <ele>417.349609375</ele>
        <time>2019-05-19T10:46:54Z</time>
      </trkpt>
      <trkpt lat="43.36095" lon="5.53504">
        <ele>417.349609375</ele>
        <time>2019-05-19T10:46:55Z</time>
      </trkpt>
      <trkpt lat="43.36082" lon="5.53499">
        <ele>419.27221679688</ele>
        <time>2019-05-19T10:47:09Z</time>
      </trkpt>
      <trkpt lat="43.36078" lon="5.53495">
        <ele>419.75280761719</ele>
        <time>2019-05-19T10:47:13Z</time>
      </trkpt>
      <trkpt lat="43.36073" lon="5.53481">
        <ele>421.19482421875</ele>
        <time>2019-05-19T10:47:25Z</time>
      </trkpt>
      <trkpt lat="43.36068" lon="5.53465">
        <ele>422.63671875</ele>
        <time>2019-05-19T10:47:34Z</time>
      </trkpt>
      <trkpt lat="43.36065" lon="5.53453">
        <ele>424.07873535156</ele>
        <time>2019-05-19T10:47:45Z</time>
      </trkpt>
      <trkpt lat="43.36058" lon="5.53434">
        <ele>426.00134277344</ele>
        <time>2019-05-19T10:48:00Z</time>
      </trkpt>
      <trkpt lat="43.36052" lon="5.53416">
        <ele>426.96276855469</ele>
        <time>2019-05-19T10:48:12Z</time>
      </trkpt>
      <trkpt lat="43.36043" lon="5.534">
        <ele>426.00134277344</ele>
        <time>2019-05-19T10:48:25Z</time>
      </trkpt>
      <trkpt lat="43.36028" lon="5.5339">
        <ele>425.52075195312</ele>
        <time>2019-05-19T10:48:41Z</time>
      </trkpt>
      <trkpt lat="43.36021" lon="5.53396">
        <ele>425.52075195312</ele>
        <time>2019-05-19T10:48:50Z</time>
      </trkpt>
      <trkpt lat="43.3602" lon="5.534">
        <ele>425.04016113281</ele>
        <time>2019-05-19T10:48:53Z</time>
      </trkpt>
      <trkpt lat="43.36015" lon="5.53404">
        <ele>424.07873535156</ele>
        <time>2019-05-19T10:48:58Z</time>
      </trkpt>
      <trkpt lat="43.36016" lon="5.53408">
        <ele>423.11743164062</ele>
        <time>2019-05-19T10:49:01Z</time>
      </trkpt>
      <trkpt lat="43.36014" lon="5.53409">
        <ele>422.63671875</ele>
        <time>2019-05-19T10:49:03Z</time>
      </trkpt>
      <trkpt lat="43.36011" lon="5.53411">
        <ele>421.67541503906</ele>
        <time>2019-05-19T10:49:06Z</time>
      </trkpt>
      <trkpt lat="43.36005" lon="5.53424">
        <ele>419.75280761719</ele>
        <time>2019-05-19T10:49:17Z</time>
      </trkpt>
      <trkpt lat="43.36003" lon="5.53427">
        <ele>419.75280761719</ele>
        <time>2019-05-19T10:49:20Z</time>
      </trkpt>
      <trkpt lat="43.36001" lon="5.53429">
        <ele>419.75280761719</ele>
        <time>2019-05-19T10:49:22Z</time>
      </trkpt>
      <trkpt lat="43.35997" lon="5.53434">
        <ele>419.75280761719</ele>
        <time>2019-05-19T10:49:27Z</time>
      </trkpt>
      <trkpt lat="43.35993" lon="5.53438">
        <ele>419.75280761719</ele>
        <time>2019-05-19T10:49:31Z</time>
      </trkpt>
      <trkpt lat="43.35991" lon="5.53441">
        <ele>419.75280761719</ele>
        <time>2019-05-19T10:49:34Z</time>
      </trkpt>
      <trkpt lat="43.35984" lon="5.53446">
        <ele>420.2333984375</ele>
        <time>2019-05-19T10:49:42Z</time>
      </trkpt>
      <trkpt lat="43.35981" lon="5.53453">
        <ele>421.67541503906</ele>
        <time>2019-05-19T10:49:48Z</time>
      </trkpt>
      <trkpt lat="43.35977" lon="5.53458">
        <ele>423.59802246094</ele>
        <time>2019-05-19T10:49:53Z</time>
      </trkpt>
      <trkpt lat="43.35968" lon="5.53476">
        <ele>426.00134277344</ele>
        <time>2019-05-19T10:50:08Z</time>
      </trkpt>
      <trkpt lat="43.35967" lon="5.53478">
        <ele>426.48205566406</ele>
        <time>2019-05-19T10:50:10Z</time>
      </trkpt>
      <trkpt lat="43.35966" lon="5.5348">
        <ele>426.48205566406</ele>
        <time>2019-05-19T10:50:12Z</time>
      </trkpt>
      <trkpt lat="43.35963" lon="5.53483">
        <ele>427.443359375</ele>
        <time>2019-05-19T10:50:16Z</time>
      </trkpt>
      <trkpt lat="43.35962" lon="5.53485">
        <ele>426.96276855469</ele>
        <time>2019-05-19T10:50:18Z</time>
      </trkpt>
      <trkpt lat="43.35958" lon="5.53488">
        <ele>426.48205566406</ele>
        <time>2019-05-19T10:50:22Z</time>
      </trkpt>
      <trkpt lat="43.35955" lon="5.5349">
        <ele>426.00134277344</ele>
        <time>2019-05-19T10:50:25Z</time>
      </trkpt>
      <trkpt lat="43.35945" lon="5.53499">
        <ele>423.59802246094</ele>
        <time>2019-05-19T10:50:39Z</time>
      </trkpt>
      <trkpt lat="43.35939" lon="5.53506">
        <ele>424.55944824219</ele>
        <time>2019-05-19T10:50:51Z</time>
      </trkpt>
      <trkpt lat="43.35939" lon="5.53506">
        <ele>424.55944824219</ele>
        <time>2019-05-19T10:50:52Z</time>
      </trkpt>
      <trkpt lat="43.35928" lon="5.53511">
        <ele>424.07873535156</ele>
        <time>2019-05-19T10:51:04Z</time>
      </trkpt>
      <trkpt lat="43.35922" lon="5.53517">
        <ele>424.55944824219</ele>
        <time>2019-05-19T10:51:14Z</time>
      </trkpt>
      <trkpt lat="43.35914" lon="5.53519">
        <ele>426.48205566406</ele>
        <time>2019-05-19T10:51:27Z</time>
      </trkpt>
      <trkpt lat="43.35911" lon="5.53519">
        <ele>426.96276855469</ele>
        <time>2019-05-19T10:51:33Z</time>
      </trkpt>
      <trkpt lat="43.35894" lon="5.53518">
        <ele>428.40466308594</ele>
        <time>2019-05-19T10:51:48Z</time>
      </trkpt>
      <trkpt lat="43.35882" lon="5.53508">
        <ele>429.84655761719</ele>
        <time>2019-05-19T10:52:01Z</time>
      </trkpt>
      <trkpt lat="43.35877" lon="5.53502">
        <ele>429.84655761719</ele>
        <time>2019-05-19T10:52:09Z</time>
      </trkpt>
      <trkpt lat="43.35868" lon="5.53491">
        <ele>430.32727050781</ele>
        <time>2019-05-19T10:52:24Z</time>
      </trkpt>
      <trkpt lat="43.35858" lon="5.53471">
        <ele>428.88537597656</ele>
        <time>2019-05-19T10:52:43Z</time>
      </trkpt>
      <trkpt lat="43.35855" lon="5.53464">
        <ele>428.40466308594</ele>
        <time>2019-05-19T10:52:51Z</time>
      </trkpt>
      <trkpt lat="43.35851" lon="5.53451">
        <ele>425.04016113281</ele>
        <time>2019-05-19T10:53:09Z</time>
      </trkpt>
      <trkpt lat="43.35851" lon="5.5345">
        <ele>425.04016113281</ele>
        <time>2019-05-19T10:53:11Z</time>
      </trkpt>
      <trkpt lat="43.35842" lon="5.53432">
        <ele>422.63671875</ele>
        <time>2019-05-19T10:53:32Z</time>
      </trkpt>
      <trkpt lat="43.3584" lon="5.53426">
        <ele>423.11743164062</ele>
        <time>2019-05-19T10:53:49Z</time>
      </trkpt>
      <trkpt lat="43.3584" lon="5.53426">
        <ele>424.07873535156</ele>
        <time>2019-05-19T10:54:08Z</time>
      </trkpt>
      <trkpt lat="43.35835" lon="5.53415">
        <ele>425.52075195312</ele>
        <time>2019-05-19T10:54:19Z</time>
      </trkpt>
      <trkpt lat="43.35834" lon="5.53412">
        <ele>425.04016113281</ele>
        <time>2019-05-19T10:54:22Z</time>
      </trkpt>
      <trkpt lat="43.35829" lon="5.53389">
        <ele>421.19482421875</ele>
        <time>2019-05-19T10:54:39Z</time>
      </trkpt>
      <trkpt lat="43.35825" lon="5.53368">
        <ele>420.71411132812</ele>
        <time>2019-05-19T10:54:57Z</time>
      </trkpt>
      <trkpt lat="43.35823" lon="5.5335">
        <ele>421.67541503906</ele>
        <time>2019-05-19T10:55:12Z</time>
      </trkpt>
      <trkpt lat="43.35823" lon="5.5334">
        <ele>422.15600585938</ele>
        <time>2019-05-19T10:55:23Z</time>
      </trkpt>
      <trkpt lat="43.35823" lon="5.53332">
        <ele>422.63671875</ele>
        <time>2019-05-19T10:55:35Z</time>
      </trkpt>
      <trkpt lat="43.35823" lon="5.53328">
        <ele>423.11743164062</ele>
        <time>2019-05-19T10:55:39Z</time>
      </trkpt>
      <trkpt lat="43.35827" lon="5.53322">
        <ele>423.59802246094</ele>
        <time>2019-05-19T10:55:50Z</time>
      </trkpt>
      <trkpt lat="43.35831" lon="5.5331">
        <ele>422.63671875</ele>
        <time>2019-05-19T10:56:03Z</time>
      </trkpt>
      <trkpt lat="43.3584" lon="5.5329">
        <ele>425.04016113281</ele>
        <time>2019-05-19T10:56:20Z</time>
      </trkpt>
      <trkpt lat="43.35843" lon="5.53283">
        <ele>426.48205566406</ele>
        <time>2019-05-19T10:56:26Z</time>
      </trkpt>
      <trkpt lat="43.35845" lon="5.53278">
        <ele>426.48205566406</ele>
        <time>2019-05-19T10:56:30Z</time>
      </trkpt>
      <trkpt lat="43.3585" lon="5.53262">
        <ele>429.84655761719</ele>
        <time>2019-05-19T10:56:43Z</time>
      </trkpt>
      <trkpt lat="43.3585" lon="5.53255">
        <ele>430.80798339844</ele>
        <time>2019-05-19T10:56:49Z</time>
      </trkpt>
      <trkpt lat="43.3585" lon="5.53252">
        <ele>431.28857421875</ele>
        <time>2019-05-19T10:56:51Z</time>
      </trkpt>
      <trkpt lat="43.35842" lon="5.53236">
        <ele>434.17260742188</ele>
        <time>2019-05-19T10:57:05Z</time>
      </trkpt>
      <trkpt lat="43.35841" lon="5.53235">
        <ele>434.17260742188</ele>
        <time>2019-05-19T10:57:24Z</time>
      </trkpt>
      <trkpt lat="43.35845" lon="5.53234">
        <ele>434.17260742188</ele>
        <time>2019-05-19T10:57:31Z</time>
      </trkpt>
      <trkpt lat="43.35859" lon="5.53216">
        <ele>434.6533203125</ele>
        <time>2019-05-19T10:57:47Z</time>
      </trkpt>
      <trkpt lat="43.35864" lon="5.53214">
        <ele>435.13391113281</ele>
        <time>2019-05-19T10:58:02Z</time>
      </trkpt>
      <trkpt lat="43.35863" lon="5.53214">
        <ele>434.6533203125</ele>
        <time>2019-05-19T10:58:13Z</time>
      </trkpt>
      <trkpt lat="43.35859" lon="5.53218">
        <ele>435.13391113281</ele>
        <time>2019-05-19T10:58:18Z</time>
      </trkpt>
      <trkpt lat="43.35855" lon="5.53221">
        <ele>433.69189453125</ele>
        <time>2019-05-19T10:58:36Z</time>
      </trkpt>
      <trkpt lat="43.35854" lon="5.53225">
        <ele>434.17260742188</ele>
        <time>2019-05-19T11:00:51Z</time>
      </trkpt>
      <trkpt lat="43.35857" lon="5.53223">
        <ele>434.6533203125</ele>
        <time>2019-05-19T11:01:10Z</time>
      </trkpt>
      <trkpt lat="43.35861" lon="5.53217">
        <ele>434.17260742188</ele>
        <time>2019-05-19T11:01:23Z</time>
      </trkpt>
      <trkpt lat="43.35852" lon="5.53223">
        <ele>434.17260742188</ele>
        <time>2019-05-19T11:01:36Z</time>
      </trkpt>
      <trkpt lat="43.35856" lon="5.53226">
        <ele>435.13391113281</ele>
        <time>2019-05-19T11:01:49Z</time>
      </trkpt>
      <trkpt lat="43.35852" lon="5.53226">
        <ele>435.61450195312</ele>
        <time>2019-05-19T11:02:23Z</time>
      </trkpt>
      <trkpt lat="43.3584" lon="5.53232">
        <ele>435.13391113281</ele>
        <time>2019-05-19T11:02:37Z</time>
      </trkpt>
      <trkpt lat="43.35838" lon="5.53233">
        <ele>435.13391113281</ele>
        <time>2019-05-19T11:02:39Z</time>
      </trkpt>
      <trkpt lat="43.35836" lon="5.53236">
        <ele>435.13391113281</ele>
        <time>2019-05-19T11:02:43Z</time>
      </trkpt>
      <trkpt lat="43.3583" lon="5.53241">
        <ele>435.13391113281</ele>
        <time>2019-05-19T11:02:49Z</time>
      </trkpt>
      <trkpt lat="43.35827" lon="5.53245">
        <ele>436.09521484375</ele>
        <time>2019-05-19T11:02:54Z</time>
      </trkpt>
      <trkpt lat="43.35817" lon="5.53257">
        <ele>437.05651855469</ele>
        <time>2019-05-19T11:03:10Z</time>
      </trkpt>
      <trkpt lat="43.3581" lon="5.53263">
        <ele>438.01782226562</ele>
        <time>2019-05-19T11:03:19Z</time>
      </trkpt>
      <trkpt lat="43.35801" lon="5.53272">
        <ele>438.01782226562</ele>
        <time>2019-05-19T11:03:33Z</time>
      </trkpt>
      <trkpt lat="43.35789" lon="5.53275">
        <ele>437.537109375</ele>
        <time>2019-05-19T11:03:47Z</time>
      </trkpt>
      <trkpt lat="43.35779" lon="5.53273">
        <ele>437.537109375</ele>
        <time>2019-05-19T11:04:00Z</time>
      </trkpt>
      <trkpt lat="43.35772" lon="5.53269">
        <ele>438.01782226562</ele>
        <time>2019-05-19T11:04:08Z</time>
      </trkpt>
      <trkpt lat="43.35769" lon="5.53265">
        <ele>438.97912597656</ele>
        <time>2019-05-19T11:04:11Z</time>
      </trkpt>
      <trkpt lat="43.35755" lon="5.53256">
        <ele>440.90185546875</ele>
        <time>2019-05-19T11:04:27Z</time>
      </trkpt>
      <trkpt lat="43.35747" lon="5.53244">
        <ele>442.82446289062</ele>
        <time>2019-05-19T11:04:41Z</time>
      </trkpt>
      <trkpt lat="43.35738" lon="5.53245">
        <ele>444.26647949219</ele>
        <time>2019-05-19T11:04:55Z</time>
      </trkpt>
      <trkpt lat="43.35734" lon="5.53252">
        <ele>444.7470703125</ele>
        <time>2019-05-19T11:05:02Z</time>
      </trkpt>
      <trkpt lat="43.35731" lon="5.53269">
        <ele>445.22766113281</ele>
        <time>2019-05-19T11:05:15Z</time>
      </trkpt>
      <trkpt lat="43.35733" lon="5.53277">
        <ele>445.22766113281</ele>
        <time>2019-05-19T11:05:20Z</time>
      </trkpt>
      <trkpt lat="43.35734" lon="5.53279">
        <ele>445.22766113281</ele>
        <time>2019-05-19T11:05:22Z</time>
      </trkpt>
      <trkpt lat="43.35738" lon="5.53291">
        <ele>444.26647949219</ele>
        <time>2019-05-19T11:05:34Z</time>
      </trkpt>
      <trkpt lat="43.35744" lon="5.53305">
        <ele>444.26647949219</ele>
        <time>2019-05-19T11:05:46Z</time>
      </trkpt>
      <trkpt lat="43.35744" lon="5.53312">
        <ele>444.7470703125</ele>
        <time>2019-05-19T11:05:53Z</time>
      </trkpt>
      <trkpt lat="43.35746" lon="5.53319">
        <ele>444.7470703125</ele>
        <time>2019-05-19T11:05:57Z</time>
      </trkpt>
      <trkpt lat="43.35748" lon="5.53323">
        <ele>445.70837402344</ele>
        <time>2019-05-19T11:06:02Z</time>
      </trkpt>
      <trkpt lat="43.35746" lon="5.5333">
        <ele>446.18908691406</ele>
        <time>2019-05-19T11:06:06Z</time>
      </trkpt>
      <trkpt lat="43.35742" lon="5.53344">
        <ele>446.66967773438</ele>
        <time>2019-05-19T11:06:16Z</time>
      </trkpt>
      <trkpt lat="43.3574" lon="5.53347">
        <ele>446.66967773438</ele>
        <time>2019-05-19T11:06:18Z</time>
      </trkpt>
      <trkpt lat="43.35738" lon="5.53362">
        <ele>449.5537109375</ele>
        <time>2019-05-19T11:06:31Z</time>
      </trkpt>
      <trkpt lat="43.35739" lon="5.53374">
        <ele>450.51501464844</ele>
        <time>2019-05-19T11:06:39Z</time>
      </trkpt>
      <trkpt lat="43.35742" lon="5.53392">
        <ele>452.43762207031</ele>
        <time>2019-05-19T11:06:52Z</time>
      </trkpt>
      <trkpt lat="43.35742" lon="5.53395">
        <ele>453.39892578125</ele>
        <time>2019-05-19T11:06:54Z</time>
      </trkpt>
      <trkpt lat="43.35744" lon="5.53403">
        <ele>455.32153320312</ele>
        <time>2019-05-19T11:06:59Z</time>
      </trkpt>
      <trkpt lat="43.35746" lon="5.53404">
        <ele>456.28295898438</ele>
        <time>2019-05-19T11:07:01Z</time>
      </trkpt>
      <trkpt lat="43.35748" lon="5.53411">
        <ele>457.72497558594</ele>
        <time>2019-05-19T11:07:05Z</time>
      </trkpt>
      <trkpt lat="43.35748" lon="5.53414">
        <ele>458.20556640625</ele>
        <time>2019-05-19T11:07:07Z</time>
      </trkpt>
      <trkpt lat="43.35764" lon="5.53434">
        <ele>457.72497558594</ele>
        <time>2019-05-19T11:07:28Z</time>
      </trkpt>
      <trkpt lat="43.35771" lon="5.53456">
        <ele>460.60876464844</ele>
        <time>2019-05-19T11:07:46Z</time>
      </trkpt>
      <trkpt lat="43.35771" lon="5.53458">
        <ele>460.60876464844</ele>
        <time>2019-05-19T11:07:48Z</time>
      </trkpt>
      <trkpt lat="43.35774" lon="5.53473">
        <ele>463.49279785156</ele>
        <time>2019-05-19T11:08:00Z</time>
      </trkpt>
      <trkpt lat="43.35778" lon="5.53484">
        <ele>466.857421875</ele>
        <time>2019-05-19T11:08:13Z</time>
      </trkpt>
      <trkpt lat="43.35781" lon="5.535">
        <ele>467.33813476562</ele>
        <time>2019-05-19T11:08:28Z</time>
      </trkpt>
      <trkpt lat="43.35781" lon="5.53505">
        <ele>467.81872558594</ele>
        <time>2019-05-19T11:08:33Z</time>
      </trkpt>
      <trkpt lat="43.35781" lon="5.53507">
        <ele>468.29931640625</ele>
        <time>2019-05-19T11:08:35Z</time>
      </trkpt>
      <trkpt lat="43.35782" lon="5.53517">
        <ele>469.74133300781</ele>
        <time>2019-05-19T11:08:43Z</time>
      </trkpt>
      <trkpt lat="43.35783" lon="5.53521">
        <ele>470.22192382812</ele>
        <time>2019-05-19T11:08:47Z</time>
      </trkpt>
      <trkpt lat="43.35783" lon="5.53534">
        <ele>472.14465332031</ele>
        <time>2019-05-19T11:08:58Z</time>
      </trkpt>
      <trkpt lat="43.35785" lon="5.53548">
        <ele>473.10607910156</ele>
        <time>2019-05-19T11:09:10Z</time>
      </trkpt>
      <trkpt lat="43.35787" lon="5.53561">
        <ele>474.06726074219</ele>
        <time>2019-05-19T11:09:24Z</time>
      </trkpt>
      <trkpt lat="43.35787" lon="5.53577">
        <ele>474.54797363281</ele>
        <time>2019-05-19T11:09:38Z</time>
      </trkpt>
      <trkpt lat="43.35789" lon="5.53585">
        <ele>474.06726074219</ele>
        <time>2019-05-19T11:09:47Z</time>
      </trkpt>
      <trkpt lat="43.35793" lon="5.53596">
        <ele>475.02868652344</ele>
        <time>2019-05-19T11:10:04Z</time>
      </trkpt>
      <trkpt lat="43.35798" lon="5.53607">
        <ele>475.50927734375</ele>
        <time>2019-05-19T11:10:16Z</time>
      </trkpt>
      <trkpt lat="43.35799" lon="5.53618">
        <ele>477.43188476562</ele>
        <time>2019-05-19T11:10:26Z</time>
      </trkpt>
      <trkpt lat="43.35803" lon="5.5363">
        <ele>478.87390136719</ele>
        <time>2019-05-19T11:10:36Z</time>
      </trkpt>
      <trkpt lat="43.35802" lon="5.53649">
        <ele>479.3544921875</ele>
        <time>2019-05-19T11:10:49Z</time>
      </trkpt>
      <trkpt lat="43.35803" lon="5.53653">
        <ele>478.87390136719</ele>
        <time>2019-05-19T11:10:53Z</time>
      </trkpt>
      <trkpt lat="43.35804" lon="5.53666">
        <ele>478.87390136719</ele>
        <time>2019-05-19T11:11:03Z</time>
      </trkpt>
      <trkpt lat="43.35802" lon="5.5368">
        <ele>477.43188476562</ele>
        <time>2019-05-19T11:11:14Z</time>
      </trkpt>
      <trkpt lat="43.35802" lon="5.53692">
        <ele>477.91247558594</ele>
        <time>2019-05-19T11:11:24Z</time>
      </trkpt>
      <trkpt lat="43.35804" lon="5.53693">
        <ele>479.3544921875</ele>
        <time>2019-05-19T11:11:28Z</time>
      </trkpt>
      <trkpt lat="43.35804" lon="5.53703">
        <ele>479.83508300781</ele>
        <time>2019-05-19T11:11:35Z</time>
      </trkpt>
      <trkpt lat="43.35804" lon="5.53724">
        <ele>481.27722167969</ele>
        <time>2019-05-19T11:11:51Z</time>
      </trkpt>
      <trkpt lat="43.358" lon="5.53745">
        <ele>481.7578125</ele>
        <time>2019-05-19T11:12:07Z</time>
      </trkpt>
      <trkpt lat="43.35799" lon="5.5376">
        <ele>482.23852539062</ele>
        <time>2019-05-19T11:12:18Z</time>
      </trkpt>
      <trkpt lat="43.35804" lon="5.53787">
        <ele>486.08374023438</ele>
        <time>2019-05-19T11:12:38Z</time>
      </trkpt>
      <trkpt lat="43.35806" lon="5.53808">
        <ele>488.00646972656</ele>
        <time>2019-05-19T11:12:55Z</time>
      </trkpt>
      <trkpt lat="43.35807" lon="5.53827">
        <ele>493.29357910156</ele>
        <time>2019-05-19T11:13:10Z</time>
      </trkpt>
      <trkpt lat="43.35813" lon="5.53826">
        <ele>494.73559570312</ele>
        <time>2019-05-19T11:13:23Z</time>
      </trkpt>
      <trkpt lat="43.35812" lon="5.53825">
        <ele>493.77429199219</ele>
        <time>2019-05-19T11:13:55Z</time>
      </trkpt>
      <trkpt lat="43.35813" lon="5.53826">
        <ele>487.04504394531</ele>
        <time>2019-05-19T11:49:00Z</time>
      </trkpt>
      <trkpt lat="43.3581" lon="5.53843">
        <ele>488.00646972656</ele>
        <time>2019-05-19T11:50:22Z</time>
      </trkpt>
      <trkpt lat="43.35808" lon="5.53859">
        <ele>491.37097167969</ele>
        <time>2019-05-19T11:50:37Z</time>
      </trkpt>
      <trkpt lat="43.35811" lon="5.53867">
        <ele>491.37097167969</ele>
        <time>2019-05-19T11:50:50Z</time>
      </trkpt>
      <trkpt lat="43.35811" lon="5.53868">
        <ele>491.85168457031</ele>
        <time>2019-05-19T11:50:59Z</time>
      </trkpt>
      <trkpt lat="43.35806" lon="5.53886">
        <ele>491.85168457031</ele>
        <time>2019-05-19T11:51:18Z</time>
      </trkpt>
      <trkpt lat="43.35805" lon="5.53903">
        <ele>492.81298828125</ele>
        <time>2019-05-19T11:51:42Z</time>
      </trkpt>
      <trkpt lat="43.358" lon="5.53918">
        <ele>493.77429199219</ele>
        <time>2019-05-19T11:52:02Z</time>
      </trkpt>
      <trkpt lat="43.35799" lon="5.53921">
        <ele>494.73559570312</ele>
        <time>2019-05-19T11:52:18Z</time>
      </trkpt>
      <trkpt lat="43.35791" lon="5.53937">
        <ele>495.69689941406</ele>
        <time>2019-05-19T11:52:37Z</time>
      </trkpt>
      <trkpt lat="43.35791" lon="5.53941">
        <ele>496.177734375</ele>
        <time>2019-05-19T11:52:41Z</time>
      </trkpt>
      <trkpt lat="43.35781" lon="5.53955">
        <ele>498.10034179688</ele>
        <time>2019-05-19T11:52:54Z</time>
      </trkpt>
      <trkpt lat="43.35777" lon="5.53963">
        <ele>500.02294921875</ele>
        <time>2019-05-19T11:53:00Z</time>
      </trkpt>
      <trkpt lat="43.35771" lon="5.53974">
        <ele>501.94555664062</ele>
        <time>2019-05-19T11:53:11Z</time>
      </trkpt>
      <trkpt lat="43.35764" lon="5.53981">
        <ele>503.8681640625</ele>
        <time>2019-05-19T11:53:19Z</time>
      </trkpt>
      <trkpt lat="43.35762" lon="5.53987">
        <ele>504.82946777344</ele>
        <time>2019-05-19T11:53:23Z</time>
      </trkpt>
      <trkpt lat="43.35759" lon="5.54004">
        <ele>509.63610839844</ele>
        <time>2019-05-19T11:53:38Z</time>
      </trkpt>
      <trkpt lat="43.35756" lon="5.54023">
        <ele>511.55871582031</ele>
        <time>2019-05-19T11:53:55Z</time>
      </trkpt>
      <trkpt lat="43.35752" lon="5.54038">
        <ele>512.52001953125</ele>
        <time>2019-05-19T11:54:08Z</time>
      </trkpt>
      <trkpt lat="43.35752" lon="5.54039">
        <ele>512.52001953125</ele>
        <time>2019-05-19T11:54:09Z</time>
      </trkpt>
      <trkpt lat="43.35751" lon="5.54054">
        <ele>513.96203613281</ele>
        <time>2019-05-19T11:54:23Z</time>
      </trkpt>
      <trkpt lat="43.35743" lon="5.54068">
        <ele>514.44262695312</ele>
        <time>2019-05-19T11:54:38Z</time>
      </trkpt>
      <trkpt lat="43.3574" lon="5.54071">
        <ele>514.92333984375</ele>
        <time>2019-05-19T11:54:41Z</time>
      </trkpt>
      <trkpt lat="43.35735" lon="5.54087">
        <ele>514.92333984375</ele>
        <time>2019-05-19T11:54:55Z</time>
      </trkpt>
      <trkpt lat="43.35733" lon="5.54105">
        <ele>516.365234375</ele>
        <time>2019-05-19T11:55:11Z</time>
      </trkpt>
      <trkpt lat="43.35733" lon="5.54121">
        <ele>516.84594726562</ele>
        <time>2019-05-19T11:55:25Z</time>
      </trkpt>
      <trkpt lat="43.3574" lon="5.54133">
        <ele>517.32666015625</ele>
        <time>2019-05-19T11:55:35Z</time>
      </trkpt>
      <trkpt lat="43.35744" lon="5.5415">
        <ele>517.80725097656</ele>
        <time>2019-05-19T11:55:48Z</time>
      </trkpt>
      <trkpt lat="43.35734" lon="5.54165">
        <ele>520.69128417969</ele>
        <time>2019-05-19T11:56:03Z</time>
      </trkpt>
      <trkpt lat="43.35724" lon="5.5418">
        <ele>523.5751953125</ele>
        <time>2019-05-19T11:56:21Z</time>
      </trkpt>
      <trkpt lat="43.35725" lon="5.54187">
        <ele>524.53649902344</ele>
        <time>2019-05-19T11:56:26Z</time>
      </trkpt>
      <trkpt lat="43.35724" lon="5.54191">
        <ele>525.01721191406</ele>
        <time>2019-05-19T11:56:30Z</time>
      </trkpt>
      <trkpt lat="43.35717" lon="5.54203">
        <ele>525.01721191406</ele>
        <time>2019-05-19T11:56:44Z</time>
      </trkpt>
      <trkpt lat="43.35708" lon="5.54217">
        <ele>527.90100097656</ele>
        <time>2019-05-19T11:56:59Z</time>
      </trkpt>
      <trkpt lat="43.35707" lon="5.54219">
        <ele>528.86254882812</ele>
        <time>2019-05-19T11:57:02Z</time>
      </trkpt>
      <trkpt lat="43.35705" lon="5.54229">
        <ele>529.82373046875</ele>
        <time>2019-05-19T11:57:10Z</time>
      </trkpt>
      <trkpt lat="43.35709" lon="5.54245">
        <ele>532.70776367188</ele>
        <time>2019-05-19T11:57:27Z</time>
      </trkpt>
      <trkpt lat="43.3571" lon="5.54253">
        <ele>536.07238769531</ele>
        <time>2019-05-19T11:57:40Z</time>
      </trkpt>
      <trkpt lat="43.35708" lon="5.54268">
        <ele>538.95629882812</ele>
        <time>2019-05-19T11:57:57Z</time>
      </trkpt>
      <trkpt lat="43.35707" lon="5.54273">
        <ele>540.87890625</ele>
        <time>2019-05-19T11:58:12Z</time>
      </trkpt>
      <trkpt lat="43.35699" lon="5.54274">
        <ele>544.72424316406</ele>
        <time>2019-05-19T11:58:29Z</time>
      </trkpt>
      <trkpt lat="43.35689" lon="5.54275">
        <ele>546.16625976562</ele>
        <time>2019-05-19T11:58:35Z</time>
      </trkpt>
      <trkpt lat="43.3568" lon="5.5427">
        <ele>548.5693359375</ele>
        <time>2019-05-19T11:58:50Z</time>
      </trkpt>
      <trkpt lat="43.35671" lon="5.54267">
        <ele>550.01147460938</ele>
        <time>2019-05-19T11:59:01Z</time>
      </trkpt>
      <trkpt lat="43.35659" lon="5.54264">
        <ele>551.93408203125</ele>
        <time>2019-05-19T11:59:18Z</time>
      </trkpt>
      <trkpt lat="43.3565" lon="5.54253">
        <ele>552.41455078125</ele>
        <time>2019-05-19T11:59:34Z</time>
      </trkpt>
      <trkpt lat="43.35649" lon="5.54263">
        <ele>552.89526367188</ele>
        <time>2019-05-19T11:59:48Z</time>
      </trkpt>
      <trkpt lat="43.3565" lon="5.54265">
        <ele>552.89526367188</ele>
        <time>2019-05-19T11:59:50Z</time>
      </trkpt>
      <trkpt lat="43.35656" lon="5.54276">
        <ele>554.33740234375</ele>
        <time>2019-05-19T12:00:04Z</time>
      </trkpt>
      <trkpt lat="43.35664" lon="5.54285">
        <ele>554.33740234375</ele>
        <time>2019-05-19T12:00:18Z</time>
      </trkpt>
      <trkpt lat="43.35667" lon="5.54304">
        <ele>553.3759765625</ele>
        <time>2019-05-19T12:00:32Z</time>
      </trkpt>
      <trkpt lat="43.35673" lon="5.54316">
        <ele>551.93408203125</ele>
        <time>2019-05-19T12:00:48Z</time>
      </trkpt>
      <trkpt lat="43.35675" lon="5.5432">
        <ele>550.4921875</ele>
        <time>2019-05-19T12:00:52Z</time>
      </trkpt>
      <trkpt lat="43.35683" lon="5.54327">
        <ele>548.0888671875</ele>
        <time>2019-05-19T12:01:02Z</time>
      </trkpt>
      <trkpt lat="43.35698" lon="5.54337">
        <ele>548.5693359375</ele>
        <time>2019-05-19T12:01:17Z</time>
      </trkpt>
      <trkpt lat="43.35707" lon="5.54351">
        <ele>550.97265625</ele>
        <time>2019-05-19T12:01:30Z</time>
      </trkpt>
      <trkpt lat="43.35708" lon="5.54353">
        <ele>551.45336914062</ele>
        <time>2019-05-19T12:01:32Z</time>
      </trkpt>
      <trkpt lat="43.35715" lon="5.54361">
        <ele>554.33740234375</ele>
        <time>2019-05-19T12:01:44Z</time>
      </trkpt>
      <trkpt lat="43.35717" lon="5.54363">
        <ele>556.74072265625</ele>
        <time>2019-05-19T12:01:47Z</time>
      </trkpt>
      <trkpt lat="43.35721" lon="5.54374">
        <ele>558.18286132812</ele>
        <time>2019-05-19T12:01:57Z</time>
      </trkpt>
      <trkpt lat="43.35724" lon="5.54384">
        <ele>560.10522460938</ele>
        <time>2019-05-19T12:02:08Z</time>
      </trkpt>
      <trkpt lat="43.35722" lon="5.54389">
        <ele>560.5859375</ele>
        <time>2019-05-19T12:02:11Z</time>
      </trkpt>
      <trkpt lat="43.35727" lon="5.54405">
        <ele>562.9892578125</ele>
        <time>2019-05-19T12:02:25Z</time>
      </trkpt>
      <trkpt lat="43.35726" lon="5.54408">
        <ele>563.95043945312</ele>
        <time>2019-05-19T12:02:29Z</time>
      </trkpt>
      <trkpt lat="43.35726" lon="5.54418">
        <ele>565.392578125</ele>
        <time>2019-05-19T12:02:37Z</time>
      </trkpt>
      <trkpt lat="43.35722" lon="5.54432">
        <ele>566.83447265625</ele>
        <time>2019-05-19T12:02:49Z</time>
      </trkpt>
      <trkpt lat="43.35721" lon="5.54451">
        <ele>569.71850585938</ele>
        <time>2019-05-19T12:03:05Z</time>
      </trkpt>
      <trkpt lat="43.35708" lon="5.5447">
        <ele>572.12182617188</ele>
        <time>2019-05-19T12:03:20Z</time>
      </trkpt>
      <trkpt lat="43.35708" lon="5.5447">
        <ele>572.12182617188</ele>
        <time>2019-05-19T12:03:21Z</time>
      </trkpt>
      <trkpt lat="43.35699" lon="5.54481">
        <ele>574.52514648438</ele>
        <time>2019-05-19T12:03:35Z</time>
      </trkpt>
      <trkpt lat="43.35682" lon="5.54488">
        <ele>577.4091796875</ele>
        <time>2019-05-19T12:03:56Z</time>
      </trkpt>
      <trkpt lat="43.35668" lon="5.54486">
        <ele>579.81225585938</ele>
        <time>2019-05-19T12:04:11Z</time>
      </trkpt>
      <trkpt lat="43.35658" lon="5.54494">
        <ele>583.65747070312</ele>
        <time>2019-05-19T12:04:32Z</time>
      </trkpt>
      <trkpt lat="43.35654" lon="5.54498">
        <ele>585.580078125</ele>
        <time>2019-05-19T12:04:51Z</time>
      </trkpt>
      <trkpt lat="43.3565" lon="5.54498">
        <ele>585.580078125</ele>
        <time>2019-05-19T12:05:07Z</time>
      </trkpt>
      <trkpt lat="43.35648" lon="5.545">
        <ele>586.06079101562</ele>
        <time>2019-05-19T12:05:38Z</time>
      </trkpt>
      <trkpt lat="43.35647" lon="5.54504">
        <ele>586.06079101562</ele>
        <time>2019-05-19T12:05:41Z</time>
      </trkpt>
      <trkpt lat="43.35645" lon="5.54533">
        <ele>587.9833984375</ele>
        <time>2019-05-19T12:05:54Z</time>
      </trkpt>
      <trkpt lat="43.35641" lon="5.54546">
        <ele>590.38696289062</ele>
        <time>2019-05-19T12:06:01Z</time>
      </trkpt>
      <trkpt lat="43.35648" lon="5.54556">
        <ele>590.38696289062</ele>
        <time>2019-05-19T12:06:10Z</time>
      </trkpt>
      <trkpt lat="43.35652" lon="5.54559">
        <ele>590.86743164062</ele>
        <time>2019-05-19T12:06:13Z</time>
      </trkpt>
      <trkpt lat="43.35655" lon="5.54561">
        <ele>590.86743164062</ele>
        <time>2019-05-19T12:06:16Z</time>
      </trkpt>
      <trkpt lat="43.35666" lon="5.54576">
        <ele>590.86743164062</ele>
        <time>2019-05-19T12:06:30Z</time>
      </trkpt>
      <trkpt lat="43.35672" lon="5.54584">
        <ele>591.34814453125</ele>
        <time>2019-05-19T12:06:37Z</time>
      </trkpt>
      <trkpt lat="43.35674" lon="5.54588">
        <ele>590.86743164062</ele>
        <time>2019-05-19T12:06:42Z</time>
      </trkpt>
      <trkpt lat="43.35682" lon="5.54601">
        <ele>592.79028320312</ele>
        <time>2019-05-19T12:06:55Z</time>
      </trkpt>
      <trkpt lat="43.35684" lon="5.54614">
        <ele>593.75146484375</ele>
        <time>2019-05-19T12:07:04Z</time>
      </trkpt>
      <trkpt lat="43.35683" lon="5.54615">
        <ele>594.23217773438</ele>
        <time>2019-05-19T12:07:07Z</time>
      </trkpt>
      <trkpt lat="43.35683" lon="5.54619">
        <ele>594.23217773438</ele>
        <time>2019-05-19T12:07:09Z</time>
      </trkpt>
      <trkpt lat="43.35683" lon="5.54622">
        <ele>594.71264648438</ele>
        <time>2019-05-19T12:07:11Z</time>
      </trkpt>
      <trkpt lat="43.35682" lon="5.54627">
        <ele>595.67407226562</ele>
        <time>2019-05-19T12:07:16Z</time>
      </trkpt>
      <trkpt lat="43.35679" lon="5.54636">
        <ele>597.11596679688</ele>
        <time>2019-05-19T12:07:23Z</time>
      </trkpt>
      <trkpt lat="43.35671" lon="5.54651">
        <ele>600</ele>
        <time>2019-05-19T12:07:34Z</time>
      </trkpt>
      <trkpt lat="43.35666" lon="5.5466">
        <ele>600.96118164062</ele>
        <time>2019-05-19T12:07:47Z</time>
      </trkpt>
      <trkpt lat="43.35661" lon="5.54662">
        <ele>600</ele>
        <time>2019-05-19T12:07:54Z</time>
      </trkpt>
      <trkpt lat="43.35645" lon="5.54669">
        <ele>601.44189453125</ele>
        <time>2019-05-19T12:08:11Z</time>
      </trkpt>
      <trkpt lat="43.35625" lon="5.54668">
        <ele>602.40307617188</ele>
        <time>2019-05-19T12:08:30Z</time>
      </trkpt>
      <trkpt lat="43.35615" lon="5.54665">
        <ele>602.8837890625</ele>
        <time>2019-05-19T12:08:40Z</time>
      </trkpt>
      <trkpt lat="43.35613" lon="5.54663">
        <ele>604.326171875</ele>
        <time>2019-05-19T12:08:42Z</time>
      </trkpt>
      <trkpt lat="43.35611" lon="5.54663">
        <ele>604.806640625</ele>
        <time>2019-05-19T12:08:45Z</time>
      </trkpt>
      <trkpt lat="43.35598" lon="5.54662">
        <ele>606.72924804688</ele>
        <time>2019-05-19T12:08:58Z</time>
      </trkpt>
      <trkpt lat="43.35592" lon="5.54658">
        <ele>608.65185546875</ele>
        <time>2019-05-19T12:09:04Z</time>
      </trkpt>
      <trkpt lat="43.35577" lon="5.54645">
        <ele>615.86181640625</ele>
        <time>2019-05-19T12:09:21Z</time>
      </trkpt>
      <trkpt lat="43.35567" lon="5.54635">
        <ele>617.3037109375</ele>
        <time>2019-05-19T12:09:35Z</time>
      </trkpt>
      <trkpt lat="43.35563" lon="5.54629">
        <ele>618.26489257812</ele>
        <time>2019-05-19T12:09:40Z</time>
      </trkpt>
      <trkpt lat="43.35552" lon="5.54617">
        <ele>616.34228515625</ele>
        <time>2019-05-19T12:09:56Z</time>
      </trkpt>
      <trkpt lat="43.35541" lon="5.54604">
        <ele>614.900390625</ele>
        <time>2019-05-19T12:10:10Z</time>
      </trkpt>
      <trkpt lat="43.3553" lon="5.54599">
        <ele>617.3037109375</ele>
        <time>2019-05-19T12:10:22Z</time>
      </trkpt>
      <trkpt lat="43.35524" lon="5.54592">
        <ele>619.22631835938</ele>
        <time>2019-05-19T12:10:29Z</time>
      </trkpt>
      <trkpt lat="43.35521" lon="5.54589">
        <ele>619.70703125</ele>
        <time>2019-05-19T12:10:32Z</time>
      </trkpt>
      <trkpt lat="43.35501" lon="5.54581">
        <ele>622.1103515625</ele>
        <time>2019-05-19T12:10:51Z</time>
      </trkpt>
      <trkpt lat="43.35494" lon="5.54579">
        <ele>623.07177734375</ele>
        <time>2019-05-19T12:10:56Z</time>
      </trkpt>
      <trkpt lat="43.35486" lon="5.54577">
        <ele>623.55249023438</ele>
        <time>2019-05-19T12:11:03Z</time>
      </trkpt>
      <trkpt lat="43.35476" lon="5.54575">
        <ele>623.55249023438</ele>
        <time>2019-05-19T12:11:12Z</time>
      </trkpt>
      <trkpt lat="43.35472" lon="5.54574">
        <ele>623.55249023438</ele>
        <time>2019-05-19T12:11:15Z</time>
      </trkpt>
      <trkpt lat="43.3546" lon="5.54569">
        <ele>622.1103515625</ele>
        <time>2019-05-19T12:11:25Z</time>
      </trkpt>
      <trkpt lat="43.35459" lon="5.54566">
        <ele>621.62963867188</ele>
        <time>2019-05-19T12:11:27Z</time>
      </trkpt>
      <trkpt lat="43.35446" lon="5.54561">
        <ele>621.14916992188</ele>
        <time>2019-05-19T12:11:38Z</time>
      </trkpt>
      <trkpt lat="43.35445" lon="5.54558">
        <ele>621.62963867188</ele>
        <time>2019-05-19T12:11:41Z</time>
      </trkpt>
      <trkpt lat="43.3544" lon="5.54553">
        <ele>621.14916992188</ele>
        <time>2019-05-19T12:11:47Z</time>
      </trkpt>
      <trkpt lat="43.35434" lon="5.54551">
        <ele>621.14916992188</ele>
        <time>2019-05-19T12:11:59Z</time>
      </trkpt>
      <trkpt lat="43.35421" lon="5.54553">
        <ele>620.18774414062</ele>
        <time>2019-05-19T12:12:32Z</time>
      </trkpt>
      <trkpt lat="43.35401" lon="5.54566">
        <ele>622.59106445312</ele>
        <time>2019-05-19T12:12:51Z</time>
      </trkpt>
      <trkpt lat="43.35392" lon="5.54572">
        <ele>624.99438476562</ele>
        <time>2019-05-19T12:13:00Z</time>
      </trkpt>
      <trkpt lat="43.35389" lon="5.54572">
        <ele>625.47485351562</ele>
        <time>2019-05-19T12:13:02Z</time>
      </trkpt>
      <trkpt lat="43.35382" lon="5.54573">
        <ele>626.9169921875</ele>
        <time>2019-05-19T12:13:08Z</time>
      </trkpt>
      <trkpt lat="43.35364" lon="5.54578">
        <ele>629.80078125</ele>
        <time>2019-05-19T12:13:22Z</time>
      </trkpt>
      <trkpt lat="43.3535" lon="5.54587">
        <ele>634.12670898438</ele>
        <time>2019-05-19T12:13:39Z</time>
      </trkpt>
      <trkpt lat="43.35345" lon="5.5459">
        <ele>635.08813476562</ele>
        <time>2019-05-19T12:13:43Z</time>
      </trkpt>
      <trkpt lat="43.35333" lon="5.54598">
        <ele>638.93359375</ele>
        <time>2019-05-19T12:13:57Z</time>
      </trkpt>
      <trkpt lat="43.35331" lon="5.546">
        <ele>639.4140625</ele>
        <time>2019-05-19T12:13:59Z</time>
      </trkpt>
      <trkpt lat="43.35315" lon="5.54631">
        <ele>641.33666992188</ele>
        <time>2019-05-19T12:14:14Z</time>
      </trkpt>
      <trkpt lat="43.35311" lon="5.54635">
        <ele>641.33666992188</ele>
        <time>2019-05-19T12:14:17Z</time>
      </trkpt>
      <trkpt lat="43.35325" lon="5.54654">
        <ele>642.29809570312</ele>
        <time>2019-05-19T12:14:25Z</time>
      </trkpt>
      <trkpt lat="43.35323" lon="5.54657">
        <ele>642.29809570312</ele>
        <time>2019-05-19T12:14:27Z</time>
      </trkpt>
      <trkpt lat="43.35327" lon="5.54664">
        <ele>642.77880859375</ele>
        <time>2019-05-19T12:14:31Z</time>
      </trkpt>
      <trkpt lat="43.35333" lon="5.54678">
        <ele>646.14331054688</ele>
        <time>2019-05-19T12:14:46Z</time>
      </trkpt>
      <trkpt lat="43.35332" lon="5.54686">
        <ele>648.54638671875</ele>
        <time>2019-05-19T12:14:53Z</time>
      </trkpt>
      <trkpt lat="43.35342" lon="5.54701">
        <ele>649.98852539062</ele>
        <time>2019-05-19T12:15:04Z</time>
      </trkpt>
      <trkpt lat="43.35348" lon="5.54709">
        <ele>652.39184570312</ele>
        <time>2019-05-19T12:15:17Z</time>
      </trkpt>
      <trkpt lat="43.3535" lon="5.5471">
        <ele>651.9111328125</ele>
        <time>2019-05-19T12:15:20Z</time>
      </trkpt>
      <trkpt lat="43.35346" lon="5.54721">
        <ele>652.39184570312</ele>
        <time>2019-05-19T12:15:35Z</time>
      </trkpt>
      <trkpt lat="43.35346" lon="5.54731">
        <ele>648.06591796875</ele>
        <time>2019-05-19T12:15:52Z</time>
      </trkpt>
      <trkpt lat="43.35343" lon="5.5473">
        <ele>646.14331054688</ele>
        <time>2019-05-19T12:16:07Z</time>
      </trkpt>
      <trkpt lat="43.35337" lon="5.54728">
        <ele>641.8173828125</ele>
        <time>2019-05-19T12:16:21Z</time>
      </trkpt>
      <trkpt lat="43.35336" lon="5.5473">
        <ele>637.97216796875</ele>
        <time>2019-05-19T12:16:43Z</time>
      </trkpt>
      <trkpt lat="43.3534" lon="5.54726">
        <ele>635.08813476562</ele>
        <time>2019-05-19T12:17:00Z</time>
      </trkpt>
      <trkpt lat="43.35341" lon="5.54725">
        <ele>635.56860351562</ele>
        <time>2019-05-19T12:17:13Z</time>
      </trkpt>
      <trkpt lat="43.35342" lon="5.54726">
        <ele>635.56860351562</ele>
        <time>2019-05-19T12:17:14Z</time>
      </trkpt>
      <trkpt lat="43.35349" lon="5.54739">
        <ele>635.56860351562</ele>
        <time>2019-05-19T12:17:18Z</time>
      </trkpt>
      <trkpt lat="43.35351" lon="5.54751">
        <ele>636.5302734375</ele>
        <time>2019-05-19T12:17:30Z</time>
      </trkpt>
      <trkpt lat="43.35358" lon="5.54761">
        <ele>637.0107421875</ele>
        <time>2019-05-19T12:17:42Z</time>
      </trkpt>
      <trkpt lat="43.35365" lon="5.5477">
        <ele>637.0107421875</ele>
        <time>2019-05-19T12:17:50Z</time>
      </trkpt>
      <trkpt lat="43.35368" lon="5.54782">
        <ele>637.0107421875</ele>
        <time>2019-05-19T12:17:58Z</time>
      </trkpt>
      <trkpt lat="43.35375" lon="5.54802">
        <ele>637.49145507812</ele>
        <time>2019-05-19T12:18:13Z</time>
      </trkpt>
      <trkpt lat="43.35389" lon="5.54819">
        <ele>639.4140625</ele>
        <time>2019-05-19T12:18:29Z</time>
      </trkpt>
      <trkpt lat="43.3539" lon="5.5482">
        <ele>639.4140625</ele>
        <time>2019-05-19T12:18:30Z</time>
      </trkpt>
      <trkpt lat="43.3539" lon="5.54839">
        <ele>637.49145507812</ele>
        <time>2019-05-19T12:18:48Z</time>
      </trkpt>
      <trkpt lat="43.3539" lon="5.5484">
        <ele>637.49145507812</ele>
        <time>2019-05-19T12:18:49Z</time>
      </trkpt>
      <trkpt lat="43.35398" lon="5.54858">
        <ele>636.5302734375</ele>
        <time>2019-05-19T12:19:03Z</time>
      </trkpt>
      <trkpt lat="43.35402" lon="5.54865">
        <ele>636.5302734375</ele>
        <time>2019-05-19T12:19:07Z</time>
      </trkpt>
      <trkpt lat="43.35407" lon="5.54884">
        <ele>633.64599609375</ele>
        <time>2019-05-19T12:19:24Z</time>
      </trkpt>
      <trkpt lat="43.35407" lon="5.54888">
        <ele>632.2041015625</ele>
        <time>2019-05-19T12:19:36Z</time>
      </trkpt>
      <trkpt lat="43.35407" lon="5.54889">
        <ele>632.2041015625</ele>
        <time>2019-05-19T12:19:37Z</time>
      </trkpt>
      <trkpt lat="43.35409" lon="5.54897">
        <ele>632.68481445312</ele>
        <time>2019-05-19T12:19:44Z</time>
      </trkpt>
      <trkpt lat="43.35408" lon="5.54903">
        <ele>632.2041015625</ele>
        <time>2019-05-19T12:19:48Z</time>
      </trkpt>
      <trkpt lat="43.35407" lon="5.54912">
        <ele>632.68481445312</ele>
        <time>2019-05-19T12:20:06Z</time>
      </trkpt>
      <trkpt lat="43.35402" lon="5.54932">
        <ele>631.72338867188</ele>
        <time>2019-05-19T12:20:39Z</time>
      </trkpt>
      <trkpt lat="43.35395" lon="5.54956">
        <ele>632.2041015625</ele>
        <time>2019-05-19T12:20:55Z</time>
      </trkpt>
      <trkpt lat="43.35383" lon="5.54985">
        <ele>630.76220703125</ele>
        <time>2019-05-19T12:21:16Z</time>
      </trkpt>
      <trkpt lat="43.35364" lon="5.55001">
        <ele>631.24291992188</ele>
        <time>2019-05-19T12:21:34Z</time>
      </trkpt>
      <trkpt lat="43.35353" lon="5.55014">
        <ele>631.72338867188</ele>
        <time>2019-05-19T12:21:52Z</time>
      </trkpt>
      <trkpt lat="43.35353" lon="5.55013">
        <ele>631.72338867188</ele>
        <time>2019-05-19T12:21:53Z</time>
      </trkpt>
      <trkpt lat="43.35349" lon="5.55003">
        <ele>633.16528320312</ele>
        <time>2019-05-19T12:22:08Z</time>
      </trkpt>
      <trkpt lat="43.35344" lon="5.54999">
        <ele>633.16528320312</ele>
        <time>2019-05-19T12:22:16Z</time>
      </trkpt>
      <trkpt lat="43.35338" lon="5.54991">
        <ele>632.68481445312</ele>
        <time>2019-05-19T12:22:23Z</time>
      </trkpt>
      <trkpt lat="43.35334" lon="5.54989">
        <ele>632.2041015625</ele>
        <time>2019-05-19T12:22:27Z</time>
      </trkpt>
      <trkpt lat="43.35323" lon="5.54966">
        <ele>633.16528320312</ele>
        <time>2019-05-19T12:22:47Z</time>
      </trkpt>
      <trkpt lat="43.35323" lon="5.54957">
        <ele>634.607421875</ele>
        <time>2019-05-19T12:22:53Z</time>
      </trkpt>
      <trkpt lat="43.35321" lon="5.54951">
        <ele>635.56860351562</ele>
        <time>2019-05-19T12:22:57Z</time>
      </trkpt>
      <trkpt lat="43.35321" lon="5.54942">
        <ele>637.97216796875</ele>
        <time>2019-05-19T12:23:06Z</time>
      </trkpt>
      <trkpt lat="43.3532" lon="5.5492">
        <ele>641.8173828125</ele>
        <time>2019-05-19T12:23:21Z</time>
      </trkpt>
      <trkpt lat="43.3532" lon="5.54916">
        <ele>642.77880859375</ele>
        <time>2019-05-19T12:23:24Z</time>
      </trkpt>
      <trkpt lat="43.35322" lon="5.54905">
        <ele>644.220703125</ele>
        <time>2019-05-19T12:23:32Z</time>
      </trkpt>
      <trkpt lat="43.35322" lon="5.5489">
        <ele>645.66259765625</ele>
        <time>2019-05-19T12:23:48Z</time>
      </trkpt>
      <trkpt lat="43.3532" lon="5.5487">
        <ele>648.54638671875</ele>
        <time>2019-05-19T12:24:04Z</time>
      </trkpt>
      <trkpt lat="43.35321" lon="5.54864">
        <ele>649.02709960938</ele>
        <time>2019-05-19T12:24:08Z</time>
      </trkpt>
      <trkpt lat="43.35319" lon="5.54857">
        <ele>648.54638671875</ele>
        <time>2019-05-19T12:24:13Z</time>
      </trkpt>
      <trkpt lat="43.35318" lon="5.54849">
        <ele>648.06591796875</ele>
        <time>2019-05-19T12:24:18Z</time>
      </trkpt>
      <trkpt lat="43.35309" lon="5.5483">
        <ele>647.1044921875</ele>
        <time>2019-05-19T12:24:36Z</time>
      </trkpt>
      <trkpt lat="43.35308" lon="5.54817">
        <ele>646.6240234375</ele>
        <time>2019-05-19T12:24:46Z</time>
      </trkpt>
      <trkpt lat="43.35302" lon="5.54803">
        <ele>645.66259765625</ele>
        <time>2019-05-19T12:25:01Z</time>
      </trkpt>
      <trkpt lat="43.35293" lon="5.54785">
        <ele>647.58520507812</ele>
        <time>2019-05-19T12:25:18Z</time>
      </trkpt>
      <trkpt lat="43.35293" lon="5.54783">
        <ele>647.58520507812</ele>
        <time>2019-05-19T12:25:21Z</time>
      </trkpt>
      <trkpt lat="43.35285" lon="5.54755">
        <ele>650.46923828125</ele>
        <time>2019-05-19T12:25:45Z</time>
      </trkpt>
      <trkpt lat="43.35281" lon="5.54747">
        <ele>650.46923828125</ele>
        <time>2019-05-19T12:25:51Z</time>
      </trkpt>
      <trkpt lat="43.3528" lon="5.54742">
        <ele>651.9111328125</ele>
        <time>2019-05-19T12:25:54Z</time>
      </trkpt>
      <trkpt lat="43.35278" lon="5.54736">
        <ele>652.39184570312</ele>
        <time>2019-05-19T12:25:57Z</time>
      </trkpt>
      <trkpt lat="43.35271" lon="5.54718">
        <ele>659.60180664062</ele>
        <time>2019-05-19T12:26:11Z</time>
      </trkpt>
      <trkpt lat="43.35266" lon="5.54711">
        <ele>658.15991210938</ele>
        <time>2019-05-19T12:26:18Z</time>
      </trkpt>
      <trkpt lat="43.35261" lon="5.54699">
        <ele>662.48559570312</ele>
        <time>2019-05-19T12:26:30Z</time>
      </trkpt>
      <trkpt lat="43.35251" lon="5.54675">
        <ele>667.29223632812</ele>
        <time>2019-05-19T12:26:47Z</time>
      </trkpt>
      <trkpt lat="43.35237" lon="5.54648">
        <ele>663.92749023438</ele>
        <time>2019-05-19T12:27:04Z</time>
      </trkpt>
      <trkpt lat="43.35234" lon="5.54639">
        <ele>661.04370117188</ele>
        <time>2019-05-19T12:27:10Z</time>
      </trkpt>
      <trkpt lat="43.35228" lon="5.54624">
        <ele>657.19848632812</ele>
        <time>2019-05-19T12:27:18Z</time>
      </trkpt>
      <trkpt lat="43.35226" lon="5.54622">
        <ele>657.19848632812</ele>
        <time>2019-05-19T12:27:20Z</time>
      </trkpt>
      <trkpt lat="43.35219" lon="5.54609">
        <ele>654.79516601562</ele>
        <time>2019-05-19T12:27:30Z</time>
      </trkpt>
      <trkpt lat="43.35217" lon="5.54607">
        <ele>654.79516601562</ele>
        <time>2019-05-19T12:27:32Z</time>
      </trkpt>
      <trkpt lat="43.35215" lon="5.54602">
        <ele>654.79516601562</ele>
        <time>2019-05-19T12:27:36Z</time>
      </trkpt>
      <trkpt lat="43.35212" lon="5.54581">
        <ele>656.7177734375</ele>
        <time>2019-05-19T12:27:55Z</time>
      </trkpt>
      <trkpt lat="43.3521" lon="5.54571">
        <ele>657.67919921875</ele>
        <time>2019-05-19T12:28:02Z</time>
      </trkpt>
      <trkpt lat="43.35207" lon="5.54565">
        <ele>659.12109375</ele>
        <time>2019-05-19T12:28:06Z</time>
      </trkpt>
      <trkpt lat="43.35204" lon="5.54561">
        <ele>659.60180664062</ele>
        <time>2019-05-19T12:28:10Z</time>
      </trkpt>
      <trkpt lat="43.35198" lon="5.54546">
        <ele>656.7177734375</ele>
        <time>2019-05-19T12:28:24Z</time>
      </trkpt>
      <trkpt lat="43.35193" lon="5.54542">
        <ele>657.19848632812</ele>
        <time>2019-05-19T12:28:37Z</time>
      </trkpt>
      <trkpt lat="43.35198" lon="5.54534">
        <ele>659.12109375</ele>
        <time>2019-05-19T12:28:58Z</time>
      </trkpt>
      <trkpt lat="43.35201" lon="5.54519">
        <ele>660.56298828125</ele>
        <time>2019-05-19T12:29:12Z</time>
      </trkpt>
      <trkpt lat="43.35205" lon="5.54507">
        <ele>664.408203125</ele>
        <time>2019-05-19T12:29:25Z</time>
      </trkpt>
      <trkpt lat="43.35206" lon="5.5449">
        <ele>669.69580078125</ele>
        <time>2019-05-19T12:29:44Z</time>
      </trkpt>
      <trkpt lat="43.35215" lon="5.54473">
        <ele>674.021484375</ele>
        <time>2019-05-19T12:30:05Z</time>
      </trkpt>
      <trkpt lat="43.35216" lon="5.5445">
        <ele>676.90551757812</ele>
        <time>2019-05-19T12:30:23Z</time>
      </trkpt>
      <trkpt lat="43.35217" lon="5.54446">
        <ele>676.90551757812</ele>
        <time>2019-05-19T12:30:28Z</time>
      </trkpt>
      <trkpt lat="43.35221" lon="5.54438">
        <ele>676.90551757812</ele>
        <time>2019-05-19T12:30:36Z</time>
      </trkpt>
      <trkpt lat="43.35222" lon="5.54427">
        <ele>676.90551757812</ele>
        <time>2019-05-19T12:30:44Z</time>
      </trkpt>
      <trkpt lat="43.35223" lon="5.5441">
        <ele>674.50219726562</ele>
        <time>2019-05-19T12:30:56Z</time>
      </trkpt>
      <trkpt lat="43.35223" lon="5.54392">
        <ele>671.6181640625</ele>
        <time>2019-05-19T12:31:13Z</time>
      </trkpt>
      <trkpt lat="43.35221" lon="5.54385">
        <ele>671.6181640625</ele>
        <time>2019-05-19T12:31:21Z</time>
      </trkpt>
      <trkpt lat="43.35218" lon="5.54372">
        <ele>674.021484375</ele>
        <time>2019-05-19T12:31:34Z</time>
      </trkpt>
      <trkpt lat="43.35214" lon="5.54369">
        <ele>672.57958984375</ele>
        <time>2019-05-19T12:31:55Z</time>
      </trkpt>
      <trkpt lat="43.35216" lon="5.54365">
        <ele>671.1376953125</ele>
        <time>2019-05-19T12:32:31Z</time>
      </trkpt>
      <trkpt lat="43.3521" lon="5.54342">
        <ele>661.5244140625</ele>
        <time>2019-05-19T12:32:50Z</time>
      </trkpt>
      <trkpt lat="43.35206" lon="5.54329">
        <ele>657.67919921875</ele>
        <time>2019-05-19T12:33:04Z</time>
      </trkpt>
      <trkpt lat="43.35202" lon="5.54314">
        <ele>653.833984375</ele>
        <time>2019-05-19T12:33:16Z</time>
      </trkpt>
      <trkpt lat="43.35196" lon="5.543">
        <ele>649.5078125</ele>
        <time>2019-05-19T12:33:31Z</time>
      </trkpt>
      <trkpt lat="43.35188" lon="5.5429">
        <ele>643.73999023438</ele>
        <time>2019-05-19T12:33:48Z</time>
      </trkpt>
      <trkpt lat="43.35184" lon="5.54283">
        <ele>639.4140625</ele>
        <time>2019-05-19T12:34:10Z</time>
      </trkpt>
      <trkpt lat="43.35185" lon="5.5428">
        <ele>638.93359375</ele>
        <time>2019-05-19T12:34:33Z</time>
      </trkpt>
      <trkpt lat="43.35178" lon="5.54272">
        <ele>637.49145507812</ele>
        <time>2019-05-19T12:34:46Z</time>
      </trkpt>
      <trkpt lat="43.35176" lon="5.54267">
        <ele>637.0107421875</ele>
        <time>2019-05-19T12:34:50Z</time>
      </trkpt>
      <trkpt lat="43.35173" lon="5.54265">
        <ele>636.5302734375</ele>
        <time>2019-05-19T12:34:52Z</time>
      </trkpt>
      <trkpt lat="43.35164" lon="5.54249">
        <ele>635.56860351562</ele>
        <time>2019-05-19T12:35:05Z</time>
      </trkpt>
      <trkpt lat="43.35164" lon="5.54246">
        <ele>635.56860351562</ele>
        <time>2019-05-19T12:35:09Z</time>
      </trkpt>
      <trkpt lat="43.35163" lon="5.5424">
        <ele>635.08813476562</ele>
        <time>2019-05-19T12:35:14Z</time>
      </trkpt>
      <trkpt lat="43.35155" lon="5.54227">
        <ele>635.08813476562</ele>
        <time>2019-05-19T12:35:28Z</time>
      </trkpt>
      <trkpt lat="43.35147" lon="5.54214">
        <ele>635.08813476562</ele>
        <time>2019-05-19T12:35:38Z</time>
      </trkpt>
      <trkpt lat="43.3514" lon="5.54207">
        <ele>634.607421875</ele>
        <time>2019-05-19T12:35:43Z</time>
      </trkpt>
      <trkpt lat="43.35138" lon="5.54204">
        <ele>633.64599609375</ele>
        <time>2019-05-19T12:35:46Z</time>
      </trkpt>
      <trkpt lat="43.35135" lon="5.54203">
        <ele>632.68481445312</ele>
        <time>2019-05-19T12:35:49Z</time>
      </trkpt>
      <trkpt lat="43.35134" lon="5.54201">
        <ele>632.2041015625</ele>
        <time>2019-05-19T12:35:51Z</time>
      </trkpt>
      <trkpt lat="43.35128" lon="5.54189">
        <ele>627.87817382812</ele>
        <time>2019-05-19T12:36:05Z</time>
      </trkpt>
      <trkpt lat="43.3512" lon="5.54177">
        <ele>624.513671875</ele>
        <time>2019-05-19T12:36:17Z</time>
      </trkpt>
      <trkpt lat="43.35117" lon="5.5416">
        <ele>621.62963867188</ele>
        <time>2019-05-19T12:36:30Z</time>
      </trkpt>
      <trkpt lat="43.3511" lon="5.54143">
        <ele>619.70703125</ele>
        <time>2019-05-19T12:36:45Z</time>
      </trkpt>
      <trkpt lat="43.35103" lon="5.54125">
        <ele>619.70703125</ele>
        <time>2019-05-19T12:36:58Z</time>
      </trkpt>
      <trkpt lat="43.35099" lon="5.54116">
        <ele>619.22631835938</ele>
        <time>2019-05-19T12:37:05Z</time>
      </trkpt>
      <trkpt lat="43.3509" lon="5.54099">
        <ele>619.22631835938</ele>
        <time>2019-05-19T12:37:18Z</time>
      </trkpt>
      <trkpt lat="43.35089" lon="5.54098">
        <ele>619.70703125</ele>
        <time>2019-05-19T12:37:19Z</time>
      </trkpt>
      <trkpt lat="43.35082" lon="5.54093">
        <ele>620.18774414062</ele>
        <time>2019-05-19T12:37:30Z</time>
      </trkpt>
      <trkpt lat="43.3508" lon="5.54081">
        <ele>619.70703125</ele>
        <time>2019-05-19T12:37:40Z</time>
      </trkpt>
      <trkpt lat="43.35079" lon="5.54077">
        <ele>620.18774414062</ele>
        <time>2019-05-19T12:37:44Z</time>
      </trkpt>
      <trkpt lat="43.35071" lon="5.54057">
        <ele>619.70703125</ele>
        <time>2019-05-19T12:37:58Z</time>
      </trkpt>
      <trkpt lat="43.35071" lon="5.54054">
        <ele>619.70703125</ele>
        <time>2019-05-19T12:38:01Z</time>
      </trkpt>
      <trkpt lat="43.35065" lon="5.54045">
        <ele>618.74560546875</ele>
        <time>2019-05-19T12:38:15Z</time>
      </trkpt>
      <trkpt lat="43.35063" lon="5.54036">
        <ele>617.7841796875</ele>
        <time>2019-05-19T12:38:30Z</time>
      </trkpt>
      <trkpt lat="43.35064" lon="5.54033">
        <ele>618.26489257812</ele>
        <time>2019-05-19T12:38:34Z</time>
      </trkpt>
      <trkpt lat="43.35066" lon="5.54027">
        <ele>618.74560546875</ele>
        <time>2019-05-19T12:38:46Z</time>
      </trkpt>
      <trkpt lat="43.3507" lon="5.5402">
        <ele>618.74560546875</ele>
        <time>2019-05-19T12:38:54Z</time>
      </trkpt>
      <trkpt lat="43.35086" lon="5.5401">
        <ele>617.3037109375</ele>
        <time>2019-05-19T12:39:10Z</time>
      </trkpt>
      <trkpt lat="43.3509" lon="5.54009">
        <ele>616.34228515625</ele>
        <time>2019-05-19T12:39:15Z</time>
      </trkpt>
      <trkpt lat="43.35093" lon="5.53996">
        <ele>614.41967773438</ele>
        <time>2019-05-19T12:39:28Z</time>
      </trkpt>
      <trkpt lat="43.35099" lon="5.53991">
        <ele>611.53588867188</ele>
        <time>2019-05-19T12:39:34Z</time>
      </trkpt>
      <trkpt lat="43.35098" lon="5.53981">
        <ele>608.17138671875</ele>
        <time>2019-05-19T12:39:43Z</time>
      </trkpt>
      <trkpt lat="43.35104" lon="5.53962">
        <ele>604.326171875</ele>
        <time>2019-05-19T12:39:59Z</time>
      </trkpt>
      <trkpt lat="43.35104" lon="5.53947">
        <ele>601.44189453125</ele>
        <time>2019-05-19T12:40:11Z</time>
      </trkpt>
      <trkpt lat="43.35103" lon="5.53941">
        <ele>599.03857421875</ele>
        <time>2019-05-19T12:40:16Z</time>
      </trkpt>
      <trkpt lat="43.35111" lon="5.53925">
        <ele>592.3095703125</ele>
        <time>2019-05-19T12:40:33Z</time>
      </trkpt>
      <trkpt lat="43.35113" lon="5.5392">
        <ele>590.38696289062</ele>
        <time>2019-05-19T12:40:38Z</time>
      </trkpt>
      <trkpt lat="43.35112" lon="5.53901">
        <ele>584.61889648438</ele>
        <time>2019-05-19T12:40:54Z</time>
      </trkpt>
      <trkpt lat="43.3511" lon="5.53889">
        <ele>582.21557617188</ele>
        <time>2019-05-19T12:41:09Z</time>
      </trkpt>
      <trkpt lat="43.35107" lon="5.53868">
        <ele>580.29296875</ele>
        <time>2019-05-19T12:41:27Z</time>
      </trkpt>
      <trkpt lat="43.35108" lon="5.53852">
        <ele>577.8896484375</ele>
        <time>2019-05-19T12:41:40Z</time>
      </trkpt>
      <trkpt lat="43.35109" lon="5.53837">
        <ele>577.4091796875</ele>
        <time>2019-05-19T12:41:54Z</time>
      </trkpt>
      <trkpt lat="43.35111" lon="5.53834">
        <ele>576.92846679688</ele>
        <time>2019-05-19T12:41:57Z</time>
      </trkpt>
      <trkpt lat="43.35107" lon="5.53814">
        <ele>576.44775390625</ele>
        <time>2019-05-19T12:42:14Z</time>
      </trkpt>
      <trkpt lat="43.35104" lon="5.53809">
        <ele>575.96704101562</ele>
        <time>2019-05-19T12:42:19Z</time>
      </trkpt>
      <trkpt lat="43.35097" lon="5.53785">
        <ele>575.005859375</ele>
        <time>2019-05-19T12:42:36Z</time>
      </trkpt>
      <trkpt lat="43.35096" lon="5.53779">
        <ele>574.04443359375</ele>
        <time>2019-05-19T12:42:38Z</time>
      </trkpt>
      <trkpt lat="43.35083" lon="5.53756">
        <ele>575.96704101562</ele>
        <time>2019-05-19T12:42:54Z</time>
      </trkpt>
      <trkpt lat="43.35077" lon="5.53746">
        <ele>576.44775390625</ele>
        <time>2019-05-19T12:43:01Z</time>
      </trkpt>
      <trkpt lat="43.35077" lon="5.53742">
        <ele>576.92846679688</ele>
        <time>2019-05-19T12:43:05Z</time>
      </trkpt>
      <trkpt lat="43.35073" lon="5.53733">
        <ele>574.04443359375</ele>
        <time>2019-05-19T12:43:13Z</time>
      </trkpt>
      <trkpt lat="43.35075" lon="5.53726">
        <ele>571.64086914062</ele>
        <time>2019-05-19T12:43:19Z</time>
      </trkpt>
      <trkpt lat="43.35078" lon="5.53716">
        <ele>567.79565429688</ele>
        <time>2019-05-19T12:43:30Z</time>
      </trkpt>
      <trkpt lat="43.35081" lon="5.53715">
        <ele>566.83447265625</ele>
        <time>2019-05-19T12:43:33Z</time>
      </trkpt>
      <trkpt lat="43.35081" lon="5.53701">
        <ele>562.9892578125</ele>
        <time>2019-05-19T12:43:45Z</time>
      </trkpt>
      <trkpt lat="43.35087" lon="5.53693">
        <ele>560.10522460938</ele>
        <time>2019-05-19T12:43:59Z</time>
      </trkpt>
      <trkpt lat="43.35088" lon="5.53679">
        <ele>560.5859375</ele>
        <time>2019-05-19T12:44:14Z</time>
      </trkpt>
      <trkpt lat="43.35086" lon="5.53667">
        <ele>561.06665039062</ele>
        <time>2019-05-19T12:44:27Z</time>
      </trkpt>
      <trkpt lat="43.35081" lon="5.53653">
        <ele>559.14404296875</ele>
        <time>2019-05-19T12:44:44Z</time>
      </trkpt>
      <trkpt lat="43.35079" lon="5.53635">
        <ele>556.74072265625</ele>
        <time>2019-05-19T12:45:02Z</time>
      </trkpt>
      <trkpt lat="43.35077" lon="5.53631">
        <ele>556.26000976562</ele>
        <time>2019-05-19T12:45:05Z</time>
      </trkpt>
      <trkpt lat="43.35074" lon="5.53611">
        <ele>554.81787109375</ele>
        <time>2019-05-19T12:45:19Z</time>
      </trkpt>
      <trkpt lat="43.3508" lon="5.53614">
        <ele>552.89526367188</ele>
        <time>2019-05-19T12:45:29Z</time>
      </trkpt>
      <trkpt lat="43.35073" lon="5.53598">
        <ele>552.41455078125</ele>
        <time>2019-05-19T12:45:44Z</time>
      </trkpt>
      <trkpt lat="43.35073" lon="5.53581">
        <ele>550.01147460938</ele>
        <time>2019-05-19T12:45:58Z</time>
      </trkpt>
      <trkpt lat="43.35074" lon="5.53574">
        <ele>550.01147460938</ele>
        <time>2019-05-19T12:46:13Z</time>
      </trkpt>
      <trkpt lat="43.35076" lon="5.53575">
        <ele>550.01147460938</ele>
        <time>2019-05-19T12:46:16Z</time>
      </trkpt>
      <trkpt lat="43.35093" lon="5.53562">
        <ele>550.01147460938</ele>
        <time>2019-05-19T12:46:38Z</time>
      </trkpt>
      <trkpt lat="43.3511" lon="5.53554">
        <ele>550.01147460938</ele>
        <time>2019-05-19T12:47:01Z</time>
      </trkpt>
      <trkpt lat="43.35115" lon="5.5355">
        <ele>550.01147460938</ele>
        <time>2019-05-19T12:47:05Z</time>
      </trkpt>
      <trkpt lat="43.35123" lon="5.53547">
        <ele>549.53076171875</ele>
        <time>2019-05-19T12:47:10Z</time>
      </trkpt>
      <trkpt lat="43.35129" lon="5.53538">
        <ele>548.0888671875</ele>
        <time>2019-05-19T12:47:23Z</time>
      </trkpt>
      <trkpt lat="43.35139" lon="5.53524">
        <ele>545.20483398438</ele>
        <time>2019-05-19T12:47:38Z</time>
      </trkpt>
      <trkpt lat="43.35142" lon="5.53512">
        <ele>543.28210449219</ele>
        <time>2019-05-19T12:47:45Z</time>
      </trkpt>
      <trkpt lat="43.35141" lon="5.53499">
        <ele>540.39831542969</ele>
        <time>2019-05-19T12:47:59Z</time>
      </trkpt>
      <trkpt lat="43.35146" lon="5.53487">
        <ele>537.51428222656</ele>
        <time>2019-05-19T12:48:13Z</time>
      </trkpt>
      <trkpt lat="43.35155" lon="5.53464">
        <ele>533.18835449219</ele>
        <time>2019-05-19T12:48:32Z</time>
      </trkpt>
      <trkpt lat="43.35157" lon="5.53452">
        <ele>529.82373046875</ele>
        <time>2019-05-19T12:48:42Z</time>
      </trkpt>
      <trkpt lat="43.35163" lon="5.5345">
        <ele>529.34313964844</ele>
        <time>2019-05-19T12:48:46Z</time>
      </trkpt>
      <trkpt lat="43.35166" lon="5.53447">
        <ele>528.86254882812</ele>
        <time>2019-05-19T12:48:49Z</time>
      </trkpt>
      <trkpt lat="43.35172" lon="5.53444">
        <ele>527.90100097656</ele>
        <time>2019-05-19T12:48:56Z</time>
      </trkpt>
      <trkpt lat="43.3517" lon="5.5344">
        <ele>527.42041015625</ele>
        <time>2019-05-19T12:48:59Z</time>
      </trkpt>
      <trkpt lat="43.35172" lon="5.53439">
        <ele>526.93981933594</ele>
        <time>2019-05-19T12:49:01Z</time>
      </trkpt>
      <trkpt lat="43.35175" lon="5.53432">
        <ele>525.97839355469</ele>
        <time>2019-05-19T12:49:05Z</time>
      </trkpt>
      <trkpt lat="43.35175" lon="5.5343">
        <ele>525.49780273438</ele>
        <time>2019-05-19T12:49:07Z</time>
      </trkpt>
      <trkpt lat="43.35177" lon="5.53427">
        <ele>524.05578613281</ele>
        <time>2019-05-19T12:49:09Z</time>
      </trkpt>
      <trkpt lat="43.35179" lon="5.53424">
        <ele>522.13317871094</ele>
        <time>2019-05-19T12:49:13Z</time>
      </trkpt>
      <trkpt lat="43.35192" lon="5.53425">
        <ele>516.84594726562</ele>
        <time>2019-05-19T12:49:24Z</time>
      </trkpt>
      <trkpt lat="43.35193" lon="5.53409">
        <ele>517.80725097656</ele>
        <time>2019-05-19T12:49:37Z</time>
      </trkpt>
      <trkpt lat="43.35193" lon="5.53408">
        <ele>517.80725097656</ele>
        <time>2019-05-19T12:49:38Z</time>
      </trkpt>
      <trkpt lat="43.35198" lon="5.53407">
        <ele>519.24926757812</ele>
        <time>2019-05-19T12:49:47Z</time>
      </trkpt>
      <trkpt lat="43.35204" lon="5.53408">
        <ele>516.365234375</ele>
        <time>2019-05-19T12:50:00Z</time>
      </trkpt>
      <trkpt lat="43.35214" lon="5.53406">
        <ele>513.96203613281</ele>
        <time>2019-05-19T12:50:15Z</time>
      </trkpt>
      <trkpt lat="43.35218" lon="5.53406">
        <ele>511.55871582031</ele>
        <time>2019-05-19T12:50:25Z</time>
      </trkpt>
      <trkpt lat="43.35229" lon="5.53405">
        <ele>508.19409179688</ele>
        <time>2019-05-19T12:50:44Z</time>
      </trkpt>
      <trkpt lat="43.35233" lon="5.53406">
        <ele>507.71350097656</ele>
        <time>2019-05-19T12:50:47Z</time>
      </trkpt>
      <trkpt lat="43.3525" lon="5.53402">
        <ele>505.79089355469</ele>
        <time>2019-05-19T12:51:02Z</time>
      </trkpt>
      <trkpt lat="43.35273" lon="5.53403">
        <ele>503.38745117188</ele>
        <time>2019-05-19T12:51:19Z</time>
      </trkpt>
      <trkpt lat="43.35276" lon="5.53405">
        <ele>503.38745117188</ele>
        <time>2019-05-19T12:51:21Z</time>
      </trkpt>
      <trkpt lat="43.35277" lon="5.53403">
        <ele>503.8681640625</ele>
        <time>2019-05-19T12:51:23Z</time>
      </trkpt>
      <trkpt lat="43.35289" lon="5.53403">
        <ele>503.8681640625</ele>
        <time>2019-05-19T12:51:31Z</time>
      </trkpt>
      <trkpt lat="43.3531" lon="5.53409">
        <ele>504.34887695312</ele>
        <time>2019-05-19T12:51:46Z</time>
      </trkpt>
      <trkpt lat="43.35324" lon="5.53411">
        <ele>503.8681640625</ele>
        <time>2019-05-19T12:51:59Z</time>
      </trkpt>
      <trkpt lat="43.3533" lon="5.53412">
        <ele>505.31018066406</ele>
        <time>2019-05-19T12:52:05Z</time>
      </trkpt>
      <trkpt lat="43.35336" lon="5.53415">
        <ele>505.79089355469</ele>
        <time>2019-05-19T12:52:08Z</time>
      </trkpt>
      <trkpt lat="43.3534" lon="5.53416">
        <ele>505.79089355469</ele>
        <time>2019-05-19T12:52:10Z</time>
      </trkpt>
      <trkpt lat="43.35347" lon="5.53412">
        <ele>509.63610839844</ele>
        <time>2019-05-19T12:52:20Z</time>
      </trkpt>
      <trkpt lat="43.35362" lon="5.5342">
        <ele>510.59729003906</ele>
        <time>2019-05-19T12:52:33Z</time>
      </trkpt>
      <trkpt lat="43.35374" lon="5.53422">
        <ele>510.59729003906</ele>
        <time>2019-05-19T12:52:41Z</time>
      </trkpt>
      <trkpt lat="43.35386" lon="5.53426">
        <ele>511.07800292969</ele>
        <time>2019-05-19T12:52:56Z</time>
      </trkpt>
      <trkpt lat="43.35387" lon="5.53427">
        <ele>509.63610839844</ele>
        <time>2019-05-19T12:53:22Z</time>
      </trkpt>
      <trkpt lat="43.35392" lon="5.5343">
        <ele>509.15539550781</ele>
        <time>2019-05-19T12:53:48Z</time>
      </trkpt>
      <trkpt lat="43.35402" lon="5.53432">
        <ele>507.23278808594</ele>
        <time>2019-05-19T12:54:00Z</time>
      </trkpt>
      <trkpt lat="43.35404" lon="5.53433">
        <ele>506.75207519531</ele>
        <time>2019-05-19T12:54:03Z</time>
      </trkpt>
      <trkpt lat="43.35409" lon="5.53439">
        <ele>506.75207519531</ele>
        <time>2019-05-19T12:54:11Z</time>
      </trkpt>
      <trkpt lat="43.35412" lon="5.53446">
        <ele>504.82946777344</ele>
        <time>2019-05-19T12:54:20Z</time>
      </trkpt>
      <trkpt lat="43.35414" lon="5.5346">
        <ele>503.38745117188</ele>
        <time>2019-05-19T12:54:34Z</time>
      </trkpt>
      <trkpt lat="43.35413" lon="5.53469">
        <ele>499.54223632812</ele>
        <time>2019-05-19T12:54:48Z</time>
      </trkpt>
      <trkpt lat="43.35415" lon="5.53478">
        <ele>496.65832519531</ele>
        <time>2019-05-19T12:54:57Z</time>
      </trkpt>
      <trkpt lat="43.35419" lon="5.53488">
        <ele>493.29357910156</ele>
        <time>2019-05-19T12:55:06Z</time>
      </trkpt>
      <trkpt lat="43.3542" lon="5.53495">
        <ele>491.85168457031</ele>
        <time>2019-05-19T12:55:11Z</time>
      </trkpt>
      <trkpt lat="43.35423" lon="5.53501">
        <ele>491.37097167969</ele>
        <time>2019-05-19T12:55:15Z</time>
      </trkpt>
      <trkpt lat="43.35425" lon="5.53506">
        <ele>489.92907714844</ele>
        <time>2019-05-19T12:55:19Z</time>
      </trkpt>
      <trkpt lat="43.35429" lon="5.53521">
        <ele>487.04504394531</ele>
        <time>2019-05-19T12:55:32Z</time>
      </trkpt>
      <trkpt lat="43.35438" lon="5.53539">
        <ele>485.12243652344</ele>
        <time>2019-05-19T12:55:44Z</time>
      </trkpt>
      <trkpt lat="43.35443" lon="5.53554">
        <ele>482.71923828125</ele>
        <time>2019-05-19T12:55:57Z</time>
      </trkpt>
      <trkpt lat="43.35455" lon="5.53563">
        <ele>480.31591796875</ele>
        <time>2019-05-19T12:56:12Z</time>
      </trkpt>
      <trkpt lat="43.35449" lon="5.53536">
        <ele>477.43188476562</ele>
        <time>2019-05-19T12:56:35Z</time>
      </trkpt>
      <trkpt lat="43.35444" lon="5.53526">
        <ele>476.47058105469</ele>
        <time>2019-05-19T12:56:49Z</time>
      </trkpt>
      <trkpt lat="43.35441" lon="5.53512">
        <ele>475.02868652344</ele>
        <time>2019-05-19T12:57:06Z</time>
      </trkpt>
      <trkpt lat="43.35445" lon="5.53506">
        <ele>475.02868652344</ele>
        <time>2019-05-19T12:57:11Z</time>
      </trkpt>
      <trkpt lat="43.35447" lon="5.53489">
        <ele>473.58666992188</ele>
        <time>2019-05-19T12:57:22Z</time>
      </trkpt>
      <trkpt lat="43.35459" lon="5.53483">
        <ele>470.70263671875</ele>
        <time>2019-05-19T12:57:35Z</time>
      </trkpt>
      <trkpt lat="43.35459" lon="5.53475">
        <ele>467.81872558594</ele>
        <time>2019-05-19T12:57:49Z</time>
      </trkpt>
      <trkpt lat="43.3546" lon="5.53465">
        <ele>465.41552734375</ele>
        <time>2019-05-19T12:58:11Z</time>
      </trkpt>
      <trkpt lat="43.35466" lon="5.53451">
        <ele>463.97338867188</ele>
        <time>2019-05-19T12:58:26Z</time>
      </trkpt>
      <trkpt lat="43.35478" lon="5.53445">
        <ele>461.57019042969</ele>
        <time>2019-05-19T12:58:35Z</time>
      </trkpt>
      <trkpt lat="43.35479" lon="5.53442">
        <ele>461.08947753906</ele>
        <time>2019-05-19T12:58:37Z</time>
      </trkpt>
      <trkpt lat="43.35485" lon="5.53435">
        <ele>461.08947753906</ele>
        <time>2019-05-19T12:58:42Z</time>
      </trkpt>
      <trkpt lat="43.35487" lon="5.53431">
        <ele>461.57019042969</ele>
        <time>2019-05-19T12:58:45Z</time>
      </trkpt>
      <trkpt lat="43.35487" lon="5.53427">
        <ele>461.08947753906</ele>
        <time>2019-05-19T12:58:49Z</time>
      </trkpt>
      <trkpt lat="43.35487" lon="5.53426">
        <ele>461.08947753906</ele>
        <time>2019-05-19T12:58:51Z</time>
      </trkpt>
      <trkpt lat="43.35485" lon="5.53416">
        <ele>461.08947753906</ele>
        <time>2019-05-19T12:58:58Z</time>
      </trkpt>
      <trkpt lat="43.35485" lon="5.53416">
        <ele>460.60876464844</ele>
        <time>2019-05-19T12:58:59Z</time>
      </trkpt>
      <trkpt lat="43.35488" lon="5.53397">
        <ele>457.72497558594</ele>
        <time>2019-05-19T12:59:13Z</time>
      </trkpt>
      <trkpt lat="43.35495" lon="5.53392">
        <ele>457.72497558594</ele>
        <time>2019-05-19T12:59:25Z</time>
      </trkpt>
      <trkpt lat="43.35496" lon="5.53391">
        <ele>457.72497558594</ele>
        <time>2019-05-19T12:59:26Z</time>
      </trkpt>
      <trkpt lat="43.35498" lon="5.53387">
        <ele>457.24426269531</ele>
        <time>2019-05-19T12:59:30Z</time>
      </trkpt>
      <trkpt lat="43.35501" lon="5.53387">
        <ele>457.24426269531</ele>
        <time>2019-05-19T12:59:32Z</time>
      </trkpt>
      <trkpt lat="43.35513" lon="5.53376">
        <ele>458.20556640625</ele>
        <time>2019-05-19T12:59:45Z</time>
      </trkpt>
      <trkpt lat="43.35523" lon="5.53372">
        <ele>456.76354980469</ele>
        <time>2019-05-19T12:59:55Z</time>
      </trkpt>
      <trkpt lat="43.35524" lon="5.53369">
        <ele>456.28295898438</ele>
        <time>2019-05-19T12:59:59Z</time>
      </trkpt>
      <trkpt lat="43.3552" lon="5.53363">
        <ele>455.32153320312</ele>
        <time>2019-05-19T13:00:10Z</time>
      </trkpt>
      <trkpt lat="43.35529" lon="5.53367">
        <ele>450.51501464844</ele>
        <time>2019-05-19T13:00:20Z</time>
      </trkpt>
      <trkpt lat="43.35526" lon="5.53348">
        <ele>449.07299804688</ele>
        <time>2019-05-19T13:00:33Z</time>
      </trkpt>
      <trkpt lat="43.35537" lon="5.53341">
        <ele>444.7470703125</ele>
        <time>2019-05-19T13:00:51Z</time>
      </trkpt>
      <trkpt lat="43.35542" lon="5.53348">
        <ele>444.7470703125</ele>
        <time>2019-05-19T13:01:02Z</time>
      </trkpt>
      <trkpt lat="43.35548" lon="5.53348">
        <ele>444.26647949219</ele>
        <time>2019-05-19T13:01:08Z</time>
      </trkpt>
      <trkpt lat="43.35553" lon="5.53347">
        <ele>443.78576660156</ele>
        <time>2019-05-19T13:01:11Z</time>
      </trkpt>
      <trkpt lat="43.3556" lon="5.53346">
        <ele>442.34387207031</ele>
        <time>2019-05-19T13:01:24Z</time>
      </trkpt>
      <trkpt lat="43.35568" lon="5.53332">
        <ele>439.45971679688</ele>
        <time>2019-05-19T13:01:38Z</time>
      </trkpt>
      <trkpt lat="43.35577" lon="5.53321">
        <ele>436.09521484375</ele>
        <time>2019-05-19T13:01:48Z</time>
      </trkpt>
      <trkpt lat="43.35578" lon="5.53318">
        <ele>434.6533203125</ele>
        <time>2019-05-19T13:01:50Z</time>
      </trkpt>
      <trkpt lat="43.35585" lon="5.5331">
        <ele>433.21130371094</ele>
        <time>2019-05-19T13:01:58Z</time>
      </trkpt>
      <trkpt lat="43.35597" lon="5.53294">
        <ele>428.40466308594</ele>
        <time>2019-05-19T13:02:11Z</time>
      </trkpt>
      <trkpt lat="43.356" lon="5.53289">
        <ele>426.00134277344</ele>
        <time>2019-05-19T13:02:16Z</time>
      </trkpt>
      <trkpt lat="43.35604" lon="5.53287">
        <ele>425.04016113281</ele>
        <time>2019-05-19T13:02:21Z</time>
      </trkpt>
      <trkpt lat="43.35612" lon="5.53284">
        <ele>421.19482421875</ele>
        <time>2019-05-19T13:02:30Z</time>
      </trkpt>
      <trkpt lat="43.35625" lon="5.53274">
        <ele>420.71411132812</ele>
        <time>2019-05-19T13:02:39Z</time>
      </trkpt>
      <trkpt lat="43.35624" lon="5.53267">
        <ele>425.04016113281</ele>
        <time>2019-05-19T13:02:48Z</time>
      </trkpt>
      <trkpt lat="43.3562" lon="5.53264">
        <ele>426.48205566406</ele>
        <time>2019-05-19T13:03:16Z</time>
      </trkpt>
      <trkpt lat="43.35622" lon="5.53262">
        <ele>426.96276855469</ele>
        <time>2019-05-19T13:04:08Z</time>
      </trkpt>
      <trkpt lat="43.35621" lon="5.53259">
        <ele>426.96276855469</ele>
        <time>2019-05-19T13:04:24Z</time>
      </trkpt>
      <trkpt lat="43.3563" lon="5.53253">
        <ele>426.48205566406</ele>
        <time>2019-05-19T13:04:38Z</time>
      </trkpt>
      <trkpt lat="43.35641" lon="5.53242">
        <ele>424.55944824219</ele>
        <time>2019-05-19T13:04:53Z</time>
      </trkpt>
      <trkpt lat="43.3565" lon="5.53234">
        <ele>422.15600585938</ele>
        <time>2019-05-19T13:05:05Z</time>
      </trkpt>
      <trkpt lat="43.35652" lon="5.53231">
        <ele>422.15600585938</ele>
        <time>2019-05-19T13:05:08Z</time>
      </trkpt>
      <trkpt lat="43.35658" lon="5.53229">
        <ele>421.19482421875</ele>
        <time>2019-05-19T13:05:13Z</time>
      </trkpt>
      <trkpt lat="43.35661" lon="5.53219">
        <ele>420.71411132812</ele>
        <time>2019-05-19T13:05:23Z</time>
      </trkpt>
      <trkpt lat="43.35667" lon="5.53207">
        <ele>419.75280761719</ele>
        <time>2019-05-19T13:05:36Z</time>
      </trkpt>
      <trkpt lat="43.35669" lon="5.53205">
        <ele>419.75280761719</ele>
        <time>2019-05-19T13:05:39Z</time>
      </trkpt>
      <trkpt lat="43.35676" lon="5.532">
        <ele>419.27221679688</ele>
        <time>2019-05-19T13:05:44Z</time>
      </trkpt>
      <trkpt lat="43.35681" lon="5.53198">
        <ele>417.349609375</ele>
        <time>2019-05-19T13:05:49Z</time>
      </trkpt>
      <trkpt lat="43.35688" lon="5.53193">
        <ele>415.90747070312</ele>
        <time>2019-05-19T13:05:58Z</time>
      </trkpt>
      <trkpt lat="43.35694" lon="5.53185">
        <ele>416.38818359375</ele>
        <time>2019-05-19T13:06:09Z</time>
      </trkpt>
      <trkpt lat="43.35701" lon="5.5318">
        <ele>415.42687988281</ele>
        <time>2019-05-19T13:06:18Z</time>
      </trkpt>
      <trkpt lat="43.35715" lon="5.53174">
        <ele>410.62023925781</ele>
        <time>2019-05-19T13:06:31Z</time>
      </trkpt>
      <trkpt lat="43.35719" lon="5.53171">
        <ele>408.69763183594</ele>
        <time>2019-05-19T13:06:35Z</time>
      </trkpt>
      <trkpt lat="43.35724" lon="5.53172">
        <ele>408.21704101562</ele>
        <time>2019-05-19T13:06:37Z</time>
      </trkpt>
      <trkpt lat="43.35732" lon="5.53167">
        <ele>408.69763183594</ele>
        <time>2019-05-19T13:06:46Z</time>
      </trkpt>
      <trkpt lat="43.35742" lon="5.53161">
        <ele>408.21704101562</ele>
        <time>2019-05-19T13:06:59Z</time>
      </trkpt>
      <trkpt lat="43.35754" lon="5.53156">
        <ele>407.736328125</ele>
        <time>2019-05-19T13:07:09Z</time>
      </trkpt>
      <trkpt lat="43.35756" lon="5.53155">
        <ele>407.736328125</ele>
        <time>2019-05-19T13:07:11Z</time>
      </trkpt>
      <trkpt lat="43.35761" lon="5.53152">
        <ele>407.25561523438</ele>
        <time>2019-05-19T13:07:15Z</time>
      </trkpt>
      <trkpt lat="43.35767" lon="5.53147">
        <ele>406.77490234375</ele>
        <time>2019-05-19T13:07:20Z</time>
      </trkpt>
      <trkpt lat="43.35792" lon="5.53142">
        <ele>406.29431152344</ele>
        <time>2019-05-19T13:07:37Z</time>
      </trkpt>
      <trkpt lat="43.35807" lon="5.53141">
        <ele>408.21704101562</ele>
        <time>2019-05-19T13:07:52Z</time>
      </trkpt>
      <trkpt lat="43.35802" lon="5.53139">
        <ele>407.25561523438</ele>
        <time>2019-05-19T13:08:06Z</time>
      </trkpt>
      <trkpt lat="43.35802" lon="5.53139">
        <ele>408.69763183594</ele>
        <time>2019-05-19T13:08:21Z</time>
      </trkpt>
      <trkpt lat="43.35797" lon="5.53146">
        <ele>410.1396484375</ele>
        <time>2019-05-19T13:08:29Z</time>
      </trkpt>
      <trkpt lat="43.35793" lon="5.53146">
        <ele>411.58166503906</ele>
        <time>2019-05-19T13:08:51Z</time>
      </trkpt>
      <trkpt lat="43.35793" lon="5.53147">
        <ele>411.58166503906</ele>
        <time>2019-05-19T13:09:30Z</time>
      </trkpt>
      <trkpt lat="43.35801" lon="5.53146">
        <ele>410.62023925781</ele>
        <time>2019-05-19T13:09:43Z</time>
      </trkpt>
      <trkpt lat="43.35807" lon="5.53141">
        <ele>406.29431152344</ele>
        <time>2019-05-19T13:09:59Z</time>
      </trkpt>
      <trkpt lat="43.35805" lon="5.53141">
        <ele>406.29431152344</ele>
        <time>2019-05-19T13:10:21Z</time>
      </trkpt>
      <trkpt lat="43.35807" lon="5.53147">
        <ele>405.3330078125</ele>
        <time>2019-05-19T13:10:41Z</time>
      </trkpt>
      <trkpt lat="43.35807" lon="5.53147">
        <ele>405.3330078125</ele>
        <time>2019-05-19T13:10:42Z</time>
      </trkpt>
      <trkpt lat="43.35806" lon="5.53159">
        <ele>405.3330078125</ele>
        <time>2019-05-19T13:10:47Z</time>
      </trkpt>
      <trkpt lat="43.35809" lon="5.53164">
        <ele>403.89111328125</ele>
        <time>2019-05-19T13:10:59Z</time>
      </trkpt>
      <trkpt lat="43.35813" lon="5.53178">
        <ele>404.37170410156</ele>
        <time>2019-05-19T13:11:12Z</time>
      </trkpt>
      <trkpt lat="43.35812" lon="5.53186">
        <ele>405.3330078125</ele>
        <time>2019-05-19T13:11:15Z</time>
      </trkpt>
      <trkpt lat="43.35816" lon="5.532">
        <ele>407.25561523438</ele>
        <time>2019-05-19T13:11:22Z</time>
      </trkpt>
      <trkpt lat="43.35827" lon="5.53214">
        <ele>411.58166503906</ele>
        <time>2019-05-19T13:11:36Z</time>
      </trkpt>
      <trkpt lat="43.35839" lon="5.53219">
        <ele>413.02355957031</ele>
        <time>2019-05-19T13:11:49Z</time>
      </trkpt>
      <trkpt lat="43.3585" lon="5.53233">
        <ele>411.10095214844</ele>
        <time>2019-05-19T13:12:04Z</time>
      </trkpt>
      <trkpt lat="43.35851" lon="5.5324">
        <ele>411.58166503906</ele>
        <time>2019-05-19T13:12:14Z</time>
      </trkpt>
      <trkpt lat="43.35851" lon="5.53252">
        <ele>411.10095214844</ele>
        <time>2019-05-19T13:12:24Z</time>
      </trkpt>
      <trkpt lat="43.35846" lon="5.53277">
        <ele>411.10095214844</ele>
        <time>2019-05-19T13:12:45Z</time>
      </trkpt>
      <trkpt lat="43.35835" lon="5.53303">
        <ele>409.17834472656</ele>
        <time>2019-05-19T13:13:08Z</time>
      </trkpt>
      <trkpt lat="43.35834" lon="5.53304">
        <ele>408.69763183594</ele>
        <time>2019-05-19T13:13:09Z</time>
      </trkpt>
      <trkpt lat="43.35826" lon="5.53315">
        <ele>406.77490234375</ele>
        <time>2019-05-19T13:13:17Z</time>
      </trkpt>
      <trkpt lat="43.35825" lon="5.53321">
        <ele>407.25561523438</ele>
        <time>2019-05-19T13:13:22Z</time>
      </trkpt>
      <trkpt lat="43.35824" lon="5.5334">
        <ele>405.3330078125</ele>
        <time>2019-05-19T13:13:36Z</time>
      </trkpt>
      <trkpt lat="43.35825" lon="5.53373">
        <ele>404.85229492188</ele>
        <time>2019-05-19T13:13:52Z</time>
      </trkpt>
      <trkpt lat="43.35832" lon="5.53393">
        <ele>403.41040039062</ele>
        <time>2019-05-19T13:14:10Z</time>
      </trkpt>
      <trkpt lat="43.35839" lon="5.53406">
        <ele>402.44909667969</ele>
        <time>2019-05-19T13:14:22Z</time>
      </trkpt>
      <trkpt lat="43.35844" lon="5.53424">
        <ele>401.00708007812</ele>
        <time>2019-05-19T13:14:36Z</time>
      </trkpt>
      <trkpt lat="43.35852" lon="5.53449">
        <ele>399.56506347656</ele>
        <time>2019-05-19T13:14:54Z</time>
      </trkpt>
      <trkpt lat="43.35854" lon="5.53451">
        <ele>400.0458984375</ele>
        <time>2019-05-19T13:14:56Z</time>
      </trkpt>
      <trkpt lat="43.35856" lon="5.53459">
        <ele>399.56506347656</ele>
        <time>2019-05-19T13:15:00Z</time>
      </trkpt>
      <trkpt lat="43.35865" lon="5.5348">
        <ele>399.56506347656</ele>
        <time>2019-05-19T13:15:16Z</time>
      </trkpt>
      <trkpt lat="43.3587" lon="5.53488">
        <ele>398.60375976562</ele>
        <time>2019-05-19T13:15:23Z</time>
      </trkpt>
      <trkpt lat="43.35874" lon="5.53492">
        <ele>397.64245605469</ele>
        <time>2019-05-19T13:15:27Z</time>
      </trkpt>
      <trkpt lat="43.35886" lon="5.53509">
        <ele>394.75854492188</ele>
        <time>2019-05-19T13:15:41Z</time>
      </trkpt>
      <trkpt lat="43.35902" lon="5.53521">
        <ele>394.27795410156</ele>
        <time>2019-05-19T13:15:58Z</time>
      </trkpt>
      <trkpt lat="43.35915" lon="5.53517">
        <ele>395.71984863281</ele>
        <time>2019-05-19T13:16:08Z</time>
      </trkpt>
      <trkpt lat="43.35919" lon="5.53516">
        <ele>396.20056152344</ele>
        <time>2019-05-19T13:16:11Z</time>
      </trkpt>
      <trkpt lat="43.35921" lon="5.53514">
        <ele>396.20056152344</ele>
        <time>2019-05-19T13:16:13Z</time>
      </trkpt>
      <trkpt lat="43.35927" lon="5.53509">
        <ele>397.16174316406</ele>
        <time>2019-05-19T13:16:20Z</time>
      </trkpt>
      <trkpt lat="43.35945" lon="5.53498">
        <ele>395.71984863281</ele>
        <time>2019-05-19T13:16:38Z</time>
      </trkpt>
      <trkpt lat="43.35959" lon="5.53488">
        <ele>394.27795410156</ele>
        <time>2019-05-19T13:16:48Z</time>
      </trkpt>
      <trkpt lat="43.35957" lon="5.5348">
        <ele>394.27795410156</ele>
        <time>2019-05-19T13:16:52Z</time>
      </trkpt>
      <trkpt lat="43.35962" lon="5.53476">
        <ele>393.79724121094</ele>
        <time>2019-05-19T13:16:56Z</time>
      </trkpt>
      <trkpt lat="43.35967" lon="5.53472">
        <ele>392.8359375</ele>
        <time>2019-05-19T13:17:01Z</time>
      </trkpt>
      <trkpt lat="43.35963" lon="5.53465">
        <ele>393.79724121094</ele>
        <time>2019-05-19T13:17:13Z</time>
      </trkpt>
      <trkpt lat="43.35948" lon="5.53466">
        <ele>390.91320800781</ele>
        <time>2019-05-19T13:17:30Z</time>
      </trkpt>
      <trkpt lat="43.35953" lon="5.53468">
        <ele>389.47119140625</ele>
        <time>2019-05-19T13:17:44Z</time>
      </trkpt>
      <trkpt lat="43.35953" lon="5.53471">
        <ele>388.99060058594</ele>
        <time>2019-05-19T13:17:55Z</time>
      </trkpt>
      <trkpt lat="43.35959" lon="5.53465">
        <ele>390.4326171875</ele>
        <time>2019-05-19T13:18:08Z</time>
      </trkpt>
      <trkpt lat="43.35963" lon="5.53463">
        <ele>390.4326171875</ele>
        <time>2019-05-19T13:18:14Z</time>
      </trkpt>
      <trkpt lat="43.3598" lon="5.53452">
        <ele>391.39379882812</ele>
        <time>2019-05-19T13:18:27Z</time>
      </trkpt>
      <trkpt lat="43.35999" lon="5.53436">
        <ele>391.87451171875</ele>
        <time>2019-05-19T13:18:43Z</time>
      </trkpt>
      <trkpt lat="43.36007" lon="5.53427">
        <ele>393.31652832031</ele>
        <time>2019-05-19T13:18:52Z</time>
      </trkpt>
      <trkpt lat="43.36016" lon="5.53409">
        <ele>394.27795410156</ele>
        <time>2019-05-19T13:19:05Z</time>
      </trkpt>
      <trkpt lat="43.36018" lon="5.53407">
        <ele>393.79724121094</ele>
        <time>2019-05-19T13:19:07Z</time>
      </trkpt>
      <trkpt lat="43.3603" lon="5.53394">
        <ele>396.68115234375</ele>
        <time>2019-05-19T13:19:20Z</time>
      </trkpt>
      <trkpt lat="43.36036" lon="5.53391">
        <ele>397.16174316406</ele>
        <time>2019-05-19T13:19:26Z</time>
      </trkpt>
      <trkpt lat="43.3604" lon="5.53394">
        <ele>397.16174316406</ele>
        <time>2019-05-19T13:19:30Z</time>
      </trkpt>
      <trkpt lat="43.36051" lon="5.53414">
        <ele>393.79724121094</ele>
        <time>2019-05-19T13:19:47Z</time>
      </trkpt>
      <trkpt lat="43.36054" lon="5.53433">
        <ele>394.75854492188</ele>
        <time>2019-05-19T13:20:01Z</time>
      </trkpt>
      <trkpt lat="43.36055" lon="5.53442">
        <ele>396.20056152344</ele>
        <time>2019-05-19T13:20:08Z</time>
      </trkpt>
      <trkpt lat="43.36056" lon="5.53445">
        <ele>396.20056152344</ele>
        <time>2019-05-19T13:20:10Z</time>
      </trkpt>
      <trkpt lat="43.36058" lon="5.53452">
        <ele>396.20056152344</ele>
        <time>2019-05-19T13:20:16Z</time>
      </trkpt>
      <trkpt lat="43.36067" lon="5.5347">
        <ele>397.64245605469</ele>
        <time>2019-05-19T13:20:30Z</time>
      </trkpt>
      <trkpt lat="43.3607" lon="5.53477">
        <ele>397.64245605469</ele>
        <time>2019-05-19T13:20:36Z</time>
      </trkpt>
      <trkpt lat="43.36072" lon="5.53482">
        <ele>398.12316894531</ele>
        <time>2019-05-19T13:20:40Z</time>
      </trkpt>
      <trkpt lat="43.36073" lon="5.53486">
        <ele>398.12316894531</ele>
        <time>2019-05-19T13:20:43Z</time>
      </trkpt>
      <trkpt lat="43.36075" lon="5.53489">
        <ele>398.12316894531</ele>
        <time>2019-05-19T13:20:45Z</time>
      </trkpt>
      <trkpt lat="43.36079" lon="5.53496">
        <ele>397.64245605469</ele>
        <time>2019-05-19T13:20:50Z</time>
      </trkpt>
      <trkpt lat="43.36087" lon="5.53502">
        <ele>398.12316894531</ele>
        <time>2019-05-19T13:20:58Z</time>
      </trkpt>
      <trkpt lat="43.36093" lon="5.53501">
        <ele>400.0458984375</ele>
        <time>2019-05-19T13:21:08Z</time>
      </trkpt>
      <trkpt lat="43.36113" lon="5.53501">
        <ele>402.44909667969</ele>
        <time>2019-05-19T13:21:22Z</time>
      </trkpt>
      <trkpt lat="43.36131" lon="5.53509">
        <ele>403.41040039062</ele>
        <time>2019-05-19T13:21:34Z</time>
      </trkpt>
      <trkpt lat="43.36139" lon="5.53523">
        <ele>406.29431152344</ele>
        <time>2019-05-19T13:21:48Z</time>
      </trkpt>
      <trkpt lat="43.36141" lon="5.53526">
        <ele>407.736328125</ele>
        <time>2019-05-19T13:21:53Z</time>
      </trkpt>
      <trkpt lat="43.36145" lon="5.53546">
        <ele>405.3330078125</ele>
        <time>2019-05-19T13:22:08Z</time>
      </trkpt>
      <trkpt lat="43.36146" lon="5.53548">
        <ele>405.3330078125</ele>
        <time>2019-05-19T13:22:09Z</time>
      </trkpt>
      <trkpt lat="43.3615" lon="5.53555">
        <ele>404.85229492188</ele>
        <time>2019-05-19T13:22:14Z</time>
      </trkpt>
      <trkpt lat="43.36156" lon="5.5357">
        <ele>403.89111328125</ele>
        <time>2019-05-19T13:22:24Z</time>
      </trkpt>
      <trkpt lat="43.36157" lon="5.53574">
        <ele>404.37170410156</ele>
        <time>2019-05-19T13:22:26Z</time>
      </trkpt>
      <trkpt lat="43.36158" lon="5.53577">
        <ele>404.85229492188</ele>
        <time>2019-05-19T13:22:28Z</time>
      </trkpt>
      <trkpt lat="43.3617" lon="5.53595">
        <ele>404.37170410156</ele>
        <time>2019-05-19T13:22:44Z</time>
      </trkpt>
      <trkpt lat="43.36171" lon="5.53596">
        <ele>404.37170410156</ele>
        <time>2019-05-19T13:22:45Z</time>
      </trkpt>
      <trkpt lat="43.36177" lon="5.53601">
        <ele>403.89111328125</ele>
        <time>2019-05-19T13:22:58Z</time>
      </trkpt>
      <trkpt lat="43.36184" lon="5.53599">
        <ele>403.89111328125</ele>
        <time>2019-05-19T13:23:26Z</time>
      </trkpt>
      <trkpt lat="43.36189" lon="5.53598">
        <ele>405.3330078125</ele>
        <time>2019-05-19T13:23:38Z</time>
      </trkpt>
      <trkpt lat="43.3619" lon="5.53599">
        <ele>405.3330078125</ele>
        <time>2019-05-19T13:23:42Z</time>
      </trkpt>
      <trkpt lat="43.36194" lon="5.53596">
        <ele>407.25561523438</ele>
        <time>2019-05-19T13:24:01Z</time>
      </trkpt>
      <trkpt lat="43.36193" lon="5.53596">
        <ele>407.25561523438</ele>
        <time>2019-05-19T13:24:21Z</time>
      </trkpt>
      <trkpt lat="43.36194" lon="5.53596">
        <ele>406.77490234375</ele>
        <time>2019-05-19T13:24:36Z</time>
      </trkpt>
      <trkpt lat="43.362" lon="5.53586">
        <ele>405.3330078125</ele>
        <time>2019-05-19T13:24:46Z</time>
      </trkpt>
      <trkpt lat="43.36214" lon="5.53572">
        <ele>402.9296875</ele>
        <time>2019-05-19T13:25:02Z</time>
      </trkpt>
      <trkpt lat="43.36208" lon="5.53569">
        <ele>403.41040039062</ele>
        <time>2019-05-19T13:25:23Z</time>
      </trkpt>
      <trkpt lat="43.36214" lon="5.53565">
        <ele>403.41040039062</ele>
        <time>2019-05-19T13:25:42Z</time>
      </trkpt>
      <trkpt lat="43.36222" lon="5.53562">
        <ele>401.00708007812</ele>
        <time>2019-05-19T13:25:50Z</time>
      </trkpt>
      <trkpt lat="43.36234" lon="5.53553">
        <ele>395.71984863281</ele>
        <time>2019-05-19T13:26:05Z</time>
      </trkpt>
      <trkpt lat="43.36237" lon="5.53551">
        <ele>395.71984863281</ele>
        <time>2019-05-19T13:26:08Z</time>
      </trkpt>
      <trkpt lat="43.36242" lon="5.53549">
        <ele>394.27795410156</ele>
        <time>2019-05-19T13:26:12Z</time>
      </trkpt>
      <trkpt lat="43.36254" lon="5.53533">
        <ele>389.95190429688</ele>
        <time>2019-05-19T13:26:26Z</time>
      </trkpt>
      <trkpt lat="43.36257" lon="5.53529">
        <ele>388.99060058594</ele>
        <time>2019-05-19T13:26:30Z</time>
      </trkpt>
      <trkpt lat="43.3626" lon="5.53524">
        <ele>388.029296875</ele>
        <time>2019-05-19T13:26:34Z</time>
      </trkpt>
      <trkpt lat="43.36261" lon="5.53522">
        <ele>388.029296875</ele>
        <time>2019-05-19T13:26:36Z</time>
      </trkpt>
      <trkpt lat="43.36264" lon="5.53518">
        <ele>387.06799316406</ele>
        <time>2019-05-19T13:26:40Z</time>
      </trkpt>
      <trkpt lat="43.36267" lon="5.53513">
        <ele>387.06799316406</ele>
        <time>2019-05-19T13:26:44Z</time>
      </trkpt>
      <trkpt lat="43.36268" lon="5.53511">
        <ele>386.58740234375</ele>
        <time>2019-05-19T13:26:46Z</time>
      </trkpt>
      <trkpt lat="43.36271" lon="5.53506">
        <ele>386.10668945312</ele>
        <time>2019-05-19T13:26:51Z</time>
      </trkpt>
      <trkpt lat="43.36277" lon="5.53496">
        <ele>383.70324707031</ele>
        <time>2019-05-19T13:26:59Z</time>
      </trkpt>
      <trkpt lat="43.36282" lon="5.53489">
        <ele>383.70324707031</ele>
        <time>2019-05-19T13:27:13Z</time>
      </trkpt>
      <trkpt lat="43.36282" lon="5.53485">
        <ele>384.66479492188</ele>
        <time>2019-05-19T13:27:27Z</time>
      </trkpt>
      <trkpt lat="43.36287" lon="5.5348">
        <ele>384.18408203125</ele>
        <time>2019-05-19T13:27:57Z</time>
      </trkpt>
      <trkpt lat="43.36301" lon="5.5347">
        <ele>383.22265625</ele>
        <time>2019-05-19T13:28:12Z</time>
      </trkpt>
      <trkpt lat="43.36319" lon="5.53461">
        <ele>382.26135253906</ele>
        <time>2019-05-19T13:28:27Z</time>
      </trkpt>
      <trkpt lat="43.36334" lon="5.53455">
        <ele>377.93542480469</ele>
        <time>2019-05-19T13:28:44Z</time>
      </trkpt>
      <trkpt lat="43.36344" lon="5.53453">
        <ele>375.05151367188</ele>
        <time>2019-05-19T13:28:58Z</time>
      </trkpt>
      <trkpt lat="43.36359" lon="5.53454">
        <ele>372.64819335938</ele>
        <time>2019-05-19T13:29:11Z</time>
      </trkpt>
      <trkpt lat="43.36371" lon="5.53459">
        <ele>369.28369140625</ele>
        <time>2019-05-19T13:29:24Z</time>
      </trkpt>
      <trkpt lat="43.36377" lon="5.53461">
        <ele>369.76428222656</ele>
        <time>2019-05-19T13:29:31Z</time>
      </trkpt>
      <trkpt lat="43.36384" lon="5.53464">
        <ele>370.24487304688</ele>
        <time>2019-05-19T13:29:39Z</time>
      </trkpt>
      <trkpt lat="43.36395" lon="5.53469">
        <ele>366.39953613281</ele>
        <time>2019-05-19T13:29:52Z</time>
      </trkpt>
      <trkpt lat="43.36397" lon="5.53469">
        <ele>366.39953613281</ele>
        <time>2019-05-19T13:29:54Z</time>
      </trkpt>
      <trkpt lat="43.36409" lon="5.53471">
        <ele>364.47692871094</ele>
        <time>2019-05-19T13:30:09Z</time>
      </trkpt>
      <trkpt lat="43.36425" lon="5.53473">
        <ele>360.63171386719</ele>
        <time>2019-05-19T13:30:29Z</time>
      </trkpt>
      <trkpt lat="43.36438" lon="5.5347">
        <ele>360.15112304688</ele>
        <time>2019-05-19T13:30:46Z</time>
      </trkpt>
      <trkpt lat="43.36438" lon="5.53466">
        <ele>358.708984375</ele>
        <time>2019-05-19T13:31:07Z</time>
      </trkpt>
      <trkpt lat="43.36449" lon="5.53461">
        <ele>359.18969726562</ele>
        <time>2019-05-19T13:31:17Z</time>
      </trkpt>
      <trkpt lat="43.36453" lon="5.53459">
        <ele>358.22839355469</ele>
        <time>2019-05-19T13:31:23Z</time>
      </trkpt>
      <trkpt lat="43.36469" lon="5.53453">
        <ele>354.38317871094</ele>
        <time>2019-05-19T13:31:38Z</time>
      </trkpt>
      <trkpt lat="43.36483" lon="5.53446">
        <ele>350.53784179688</ele>
        <time>2019-05-19T13:31:53Z</time>
      </trkpt>
      <trkpt lat="43.36496" lon="5.53436">
        <ele>350.05725097656</ele>
        <time>2019-05-19T13:32:07Z</time>
      </trkpt>
      <trkpt lat="43.36502" lon="5.53433">
        <ele>351.49914550781</ele>
        <time>2019-05-19T13:32:14Z</time>
      </trkpt>
      <trkpt lat="43.36507" lon="5.53431">
        <ele>351.01843261719</ele>
        <time>2019-05-19T13:32:18Z</time>
      </trkpt>
      <trkpt lat="43.3651" lon="5.53427">
        <ele>350.53784179688</ele>
        <time>2019-05-19T13:32:21Z</time>
      </trkpt>
      <trkpt lat="43.36526" lon="5.53418">
        <ele>348.615234375</ele>
        <time>2019-05-19T13:32:36Z</time>
      </trkpt>
      <trkpt lat="43.36529" lon="5.53413">
        <ele>348.13464355469</ele>
        <time>2019-05-19T13:32:52Z</time>
      </trkpt>
      <trkpt lat="43.36525" lon="5.53413">
        <ele>347.65393066406</ele>
        <time>2019-05-19T13:33:08Z</time>
      </trkpt>
      <trkpt lat="43.36524" lon="5.53412">
        <ele>347.17321777344</ele>
        <time>2019-05-19T13:34:08Z</time>
      </trkpt>
      <trkpt lat="43.36536" lon="5.53407">
        <ele>346.21203613281</ele>
        <time>2019-05-19T13:34:20Z</time>
      </trkpt>
      <trkpt lat="43.36543" lon="5.53403">
        <ele>344.28942871094</ele>
        <time>2019-05-19T13:34:36Z</time>
      </trkpt>
      <trkpt lat="43.36551" lon="5.53399">
        <ele>343.32788085938</ele>
        <time>2019-05-19T13:34:58Z</time>
      </trkpt>
      <trkpt lat="43.36562" lon="5.5339">
        <ele>346.21203613281</ele>
        <time>2019-05-19T13:35:15Z</time>
      </trkpt>
      <trkpt lat="43.36569" lon="5.53385">
        <ele>345.73132324219</ele>
        <time>2019-05-19T13:35:25Z</time>
      </trkpt>
      <trkpt lat="43.36579" lon="5.53382">
        <ele>344.77001953125</ele>
        <time>2019-05-19T13:35:36Z</time>
      </trkpt>
      <trkpt lat="43.36589" lon="5.53378">
        <ele>341.88598632812</ele>
        <time>2019-05-19T13:35:51Z</time>
      </trkpt>
      <trkpt lat="43.36601" lon="5.53374">
        <ele>340.92468261719</ele>
        <time>2019-05-19T13:36:08Z</time>
      </trkpt>
      <trkpt lat="43.36614" lon="5.53372">
        <ele>339.48266601562</ele>
        <time>2019-05-19T13:36:25Z</time>
      </trkpt>
      <trkpt lat="43.36623" lon="5.53371">
        <ele>339.96337890625</ele>
        <time>2019-05-19T13:36:40Z</time>
      </trkpt>
      <trkpt lat="43.36636" lon="5.53363">
        <ele>340.44409179688</ele>
        <time>2019-05-19T13:36:54Z</time>
      </trkpt>
      <trkpt lat="43.36638" lon="5.53359">
        <ele>340.44409179688</ele>
        <time>2019-05-19T13:37:02Z</time>
      </trkpt>
      <trkpt lat="43.3664" lon="5.53356">
        <ele>338.521484375</ele>
        <time>2019-05-19T13:37:04Z</time>
      </trkpt>
      <trkpt lat="43.36646" lon="5.53352">
        <ele>336.1181640625</ele>
        <time>2019-05-19T13:37:11Z</time>
      </trkpt>
      <trkpt lat="43.36651" lon="5.53345">
        <ele>334.67614746094</ele>
        <time>2019-05-19T13:37:18Z</time>
      </trkpt>
      <trkpt lat="43.36655" lon="5.53332">
        <ele>333.71472167969</ele>
        <time>2019-05-19T13:37:27Z</time>
      </trkpt>
      <trkpt lat="43.36665" lon="5.53316">
        <ele>337.07946777344</ele>
        <time>2019-05-19T13:37:43Z</time>
      </trkpt>
      <trkpt lat="43.3667" lon="5.53304">
        <ele>334.19543457031</ele>
        <time>2019-05-19T13:37:53Z</time>
      </trkpt>
      <trkpt lat="43.36683" lon="5.53293">
        <ele>333.23413085938</ele>
        <time>2019-05-19T13:38:08Z</time>
      </trkpt>
      <trkpt lat="43.36698" lon="5.53281">
        <ele>332.27282714844</ele>
        <time>2019-05-19T13:38:25Z</time>
      </trkpt>
      <trkpt lat="43.3671" lon="5.53272">
        <ele>331.79211425781</ele>
        <time>2019-05-19T13:38:39Z</time>
      </trkpt>
      <trkpt lat="43.36726" lon="5.53268">
        <ele>331.3115234375</ele>
        <time>2019-05-19T13:38:52Z</time>
      </trkpt>
      <trkpt lat="43.36736" lon="5.5327">
        <ele>332.27282714844</ele>
        <time>2019-05-19T13:39:00Z</time>
      </trkpt>
      <trkpt lat="43.36743" lon="5.53273">
        <ele>332.75354003906</ele>
        <time>2019-05-19T13:39:07Z</time>
      </trkpt>
      <trkpt lat="43.36747" lon="5.53276">
        <ele>332.27282714844</ele>
        <time>2019-05-19T13:39:12Z</time>
      </trkpt>
      <trkpt lat="43.36749" lon="5.53277">
        <ele>331.79211425781</ele>
        <time>2019-05-19T13:39:14Z</time>
      </trkpt>
      <trkpt lat="43.36754" lon="5.53283">
        <ele>329.38891601562</ele>
        <time>2019-05-19T13:39:20Z</time>
      </trkpt>
      <trkpt lat="43.36762" lon="5.53301">
        <ele>327.94677734375</ele>
        <time>2019-05-19T13:39:34Z</time>
      </trkpt>
      <trkpt lat="43.36763" lon="5.53303">
        <ele>327.94677734375</ele>
        <time>2019-05-19T13:39:36Z</time>
      </trkpt>
      <trkpt lat="43.36766" lon="5.53304">
        <ele>327.94677734375</ele>
        <time>2019-05-19T13:39:38Z</time>
      </trkpt>
      <trkpt lat="43.36784" lon="5.53319">
        <ele>324.58227539062</ele>
        <time>2019-05-19T13:39:55Z</time>
      </trkpt>
      <trkpt lat="43.36799" lon="5.53331">
        <ele>324.1015625</ele>
        <time>2019-05-19T13:40:10Z</time>
      </trkpt>
      <trkpt lat="43.36816" lon="5.53339">
        <ele>323.62097167969</ele>
        <time>2019-05-19T13:40:25Z</time>
      </trkpt>
      <trkpt lat="43.36833" lon="5.53344">
        <ele>321.2177734375</ele>
        <time>2019-05-19T13:40:42Z</time>
      </trkpt>
      <trkpt lat="43.36844" lon="5.53349">
        <ele>320.25634765625</ele>
        <time>2019-05-19T13:40:52Z</time>
      </trkpt>
      <trkpt lat="43.3686" lon="5.53362">
        <ele>318.81433105469</ele>
        <time>2019-05-19T13:41:09Z</time>
      </trkpt>
      <trkpt lat="43.36862" lon="5.53372">
        <ele>318.33361816406</ele>
        <time>2019-05-19T13:41:18Z</time>
      </trkpt>
      <trkpt lat="43.36861" lon="5.53377">
        <ele>318.81433105469</ele>
        <time>2019-05-19T13:41:22Z</time>
      </trkpt>
      <trkpt lat="43.36857" lon="5.53401">
        <ele>315.93041992188</ele>
        <time>2019-05-19T13:41:38Z</time>
      </trkpt>
      <trkpt lat="43.36856" lon="5.53405">
        <ele>315.93041992188</ele>
        <time>2019-05-19T13:41:41Z</time>
      </trkpt>
      <trkpt lat="43.36855" lon="5.53411">
        <ele>315.44982910156</ele>
        <time>2019-05-19T13:41:44Z</time>
      </trkpt>
      <trkpt lat="43.36851" lon="5.53423">
        <ele>314.48840332031</ele>
        <time>2019-05-19T13:41:54Z</time>
      </trkpt>
      <trkpt lat="43.36845" lon="5.53438">
        <ele>313.52722167969</ele>
        <time>2019-05-19T13:42:05Z</time>
      </trkpt>
      <trkpt lat="43.36843" lon="5.53441">
        <ele>313.04650878906</ele>
        <time>2019-05-19T13:42:07Z</time>
      </trkpt>
      <trkpt lat="43.36836" lon="5.53455">
        <ele>316.41101074219</ele>
        <time>2019-05-19T13:42:17Z</time>
      </trkpt>
      <trkpt lat="43.36834" lon="5.53458">
        <ele>316.89172363281</ele>
        <time>2019-05-19T13:42:20Z</time>
      </trkpt>
      <trkpt lat="43.36828" lon="5.53473">
        <ele>317.37243652344</ele>
        <time>2019-05-19T13:42:30Z</time>
      </trkpt>
      <trkpt lat="43.3682" lon="5.53484">
        <ele>318.81433105469</ele>
        <time>2019-05-19T13:42:39Z</time>
      </trkpt>
      <trkpt lat="43.36819" lon="5.535">
        <ele>320.25634765625</ele>
        <time>2019-05-19T13:42:51Z</time>
      </trkpt>
      <trkpt lat="43.36828" lon="5.53515">
        <ele>320.73706054688</ele>
        <time>2019-05-19T13:43:07Z</time>
      </trkpt>
      <trkpt lat="43.36831" lon="5.53517">
        <ele>321.2177734375</ele>
        <time>2019-05-19T13:43:12Z</time>
      </trkpt>
      <trkpt lat="43.36839" lon="5.53528">
        <ele>322.17895507812</ele>
        <time>2019-05-19T13:43:24Z</time>
      </trkpt>
      <trkpt lat="43.36851" lon="5.5354">
        <ele>322.17895507812</ele>
        <time>2019-05-19T13:43:37Z</time>
      </trkpt>
      <trkpt lat="43.3687" lon="5.53557">
        <ele>323.14038085938</ele>
        <time>2019-05-19T13:43:53Z</time>
      </trkpt>
      <trkpt lat="43.36882" lon="5.53571">
        <ele>324.1015625</ele>
        <time>2019-05-19T13:44:08Z</time>
      </trkpt>
      <trkpt lat="43.36884" lon="5.53576">
        <ele>323.14038085938</ele>
        <time>2019-05-19T13:44:12Z</time>
      </trkpt>
      <trkpt lat="43.36889" lon="5.53589">
        <ele>320.73706054688</ele>
        <time>2019-05-19T13:44:23Z</time>
      </trkpt>
      <trkpt lat="43.36879" lon="5.53606">
        <ele>317.37243652344</ele>
        <time>2019-05-19T13:44:37Z</time>
      </trkpt>
      <trkpt lat="43.36874" lon="5.53611">
        <ele>316.41101074219</ele>
        <time>2019-05-19T13:44:42Z</time>
      </trkpt>
      <trkpt lat="43.36871" lon="5.53625">
        <ele>316.89172363281</ele>
        <time>2019-05-19T13:44:51Z</time>
      </trkpt>
      <trkpt lat="43.36872" lon="5.53627">
        <ele>316.89172363281</ele>
        <time>2019-05-19T13:44:53Z</time>
      </trkpt>
      <trkpt lat="43.36876" lon="5.53641">
        <ele>316.89172363281</ele>
        <time>2019-05-19T13:45:02Z</time>
      </trkpt>
      <trkpt lat="43.36875" lon="5.53664">
        <ele>315.44982910156</ele>
        <time>2019-05-19T13:45:15Z</time>
      </trkpt>
      <trkpt lat="43.36871" lon="5.53687">
        <ele>316.89172363281</ele>
        <time>2019-05-19T13:45:29Z</time>
      </trkpt>
      <trkpt lat="43.36865" lon="5.53705">
        <ele>315.93041992188</ele>
        <time>2019-05-19T13:45:41Z</time>
      </trkpt>
      <trkpt lat="43.36854" lon="5.53721">
        <ele>319.29504394531</ele>
        <time>2019-05-19T13:45:54Z</time>
      </trkpt>
      <trkpt lat="43.36854" lon="5.53722">
        <ele>319.29504394531</ele>
        <time>2019-05-19T13:45:55Z</time>
      </trkpt>
      <trkpt lat="43.36842" lon="5.53749">
        <ele>315.93041992188</ele>
        <time>2019-05-19T13:46:15Z</time>
      </trkpt>
      <trkpt lat="43.36836" lon="5.53762">
        <ele>313.52722167969</ele>
        <time>2019-05-19T13:46:26Z</time>
      </trkpt>
      <trkpt lat="43.36835" lon="5.53768">
        <ele>312.56579589844</ele>
        <time>2019-05-19T13:46:31Z</time>
      </trkpt>
      <trkpt lat="43.36836" lon="5.53787">
        <ele>310.64306640625</ele>
        <time>2019-05-19T13:46:45Z</time>
      </trkpt>
      <trkpt lat="43.36837" lon="5.53794">
        <ele>310.16247558594</ele>
        <time>2019-05-19T13:46:51Z</time>
      </trkpt>
      <trkpt lat="43.36841" lon="5.53801">
        <ele>309.68188476562</ele>
        <time>2019-05-19T13:46:57Z</time>
      </trkpt>
      <trkpt lat="43.36849" lon="5.53816">
        <ele>309.201171875</ele>
        <time>2019-05-19T13:47:11Z</time>
      </trkpt>
      <trkpt lat="43.36852" lon="5.5382">
        <ele>309.201171875</ele>
        <time>2019-05-19T13:47:15Z</time>
      </trkpt>
      <trkpt lat="43.36862" lon="5.53832">
        <ele>309.68188476562</ele>
        <time>2019-05-19T13:47:31Z</time>
      </trkpt>
      <trkpt lat="43.36872" lon="5.53832">
        <ele>310.16247558594</ele>
        <time>2019-05-19T13:47:38Z</time>
      </trkpt>
      <trkpt lat="43.36886" lon="5.53823">
        <ele>311.6044921875</ele>
        <time>2019-05-19T13:47:57Z</time>
      </trkpt>
      <trkpt lat="43.36892" lon="5.53822">
        <ele>311.6044921875</ele>
        <time>2019-05-19T13:48:02Z</time>
      </trkpt>
      <trkpt lat="43.36896" lon="5.5382">
        <ele>312.08520507812</ele>
        <time>2019-05-19T13:48:04Z</time>
      </trkpt>
      <trkpt lat="43.36898" lon="5.53816">
        <ele>312.08520507812</ele>
        <time>2019-05-19T13:48:07Z</time>
      </trkpt>
      <trkpt lat="43.36908" lon="5.53797">
        <ele>310.64306640625</ele>
        <time>2019-05-19T13:48:24Z</time>
      </trkpt>
      <trkpt lat="43.36912" lon="5.53781">
        <ele>311.12377929688</ele>
        <time>2019-05-19T13:48:42Z</time>
      </trkpt>
      <trkpt lat="43.36916" lon="5.53773">
        <ele>312.56579589844</ele>
        <time>2019-05-19T13:48:56Z</time>
      </trkpt>
      <trkpt lat="43.36916" lon="5.53775">
        <ele>313.04650878906</ele>
        <time>2019-05-19T13:49:04Z</time>
      </trkpt>
      <trkpt lat="43.36917" lon="5.53768">
        <ele>313.04650878906</ele>
        <time>2019-05-19T13:49:08Z</time>
      </trkpt>
      <trkpt lat="43.36924" lon="5.53763">
        <ele>313.52722167969</ele>
        <time>2019-05-19T13:49:18Z</time>
      </trkpt>
      <trkpt lat="43.36929" lon="5.53751">
        <ele>314.0078125</ele>
        <time>2019-05-19T13:49:28Z</time>
      </trkpt>
      <trkpt lat="43.36934" lon="5.53744">
        <ele>314.0078125</ele>
        <time>2019-05-19T13:49:35Z</time>
      </trkpt>
      <trkpt lat="43.36944" lon="5.5374">
        <ele>314.0078125</ele>
        <time>2019-05-19T13:49:47Z</time>
      </trkpt>
      <trkpt lat="43.3696" lon="5.53734">
        <ele>312.08520507812</ele>
        <time>2019-05-19T13:50:00Z</time>
      </trkpt>
      <trkpt lat="43.36964" lon="5.53734">
        <ele>311.6044921875</ele>
        <time>2019-05-19T13:50:03Z</time>
      </trkpt>
      <trkpt lat="43.36977" lon="5.53731">
        <ele>311.6044921875</ele>
        <time>2019-05-19T13:50:17Z</time>
      </trkpt>
      <trkpt lat="43.36992" lon="5.53729">
        <ele>311.6044921875</ele>
        <time>2019-05-19T13:50:31Z</time>
      </trkpt>
      <trkpt lat="43.36994" lon="5.53721">
        <ele>312.08520507812</ele>
        <time>2019-05-19T13:50:47Z</time>
      </trkpt>
      <trkpt lat="43.37005" lon="5.53724">
        <ele>312.56579589844</ele>
        <time>2019-05-19T13:51:01Z</time>
      </trkpt>
      <trkpt lat="43.37015" lon="5.53727">
        <ele>312.56579589844</ele>
        <time>2019-05-19T13:51:14Z</time>
      </trkpt>
      <trkpt lat="43.37014" lon="5.53712">
        <ele>313.52722167969</ele>
        <time>2019-05-19T13:51:29Z</time>
      </trkpt>
      <trkpt lat="43.37012" lon="5.537">
        <ele>314.0078125</ele>
        <time>2019-05-19T13:51:39Z</time>
      </trkpt>
      <trkpt lat="43.37012" lon="5.53696">
        <ele>313.52722167969</ele>
        <time>2019-05-19T13:51:41Z</time>
      </trkpt>
      <trkpt lat="43.3701" lon="5.53681">
        <ele>311.6044921875</ele>
        <time>2019-05-19T13:51:54Z</time>
      </trkpt>
      <trkpt lat="43.3701" lon="5.53676">
        <ele>311.6044921875</ele>
        <time>2019-05-19T13:52:01Z</time>
      </trkpt>
      <trkpt lat="43.37006" lon="5.53663">
        <ele>312.56579589844</ele>
        <time>2019-05-19T13:52:14Z</time>
      </trkpt>
      <trkpt lat="43.37009" lon="5.53652">
        <ele>311.6044921875</ele>
        <time>2019-05-19T13:52:34Z</time>
      </trkpt>
      <trkpt lat="43.37011" lon="5.53639">
        <ele>311.6044921875</ele>
        <time>2019-05-19T13:53:10Z</time>
      </trkpt>
      <trkpt lat="43.37017" lon="5.5363">
        <ele>311.12377929688</ele>
        <time>2019-05-19T13:53:17Z</time>
      </trkpt>
      <trkpt lat="43.37017" lon="5.53622">
        <ele>311.12377929688</ele>
        <time>2019-05-19T13:53:22Z</time>
      </trkpt>
      <trkpt lat="43.37019" lon="5.53618">
        <ele>311.6044921875</ele>
        <time>2019-05-19T13:53:25Z</time>
      </trkpt>
      <trkpt lat="43.37016" lon="5.53619">
        <ele>312.08520507812</ele>
        <time>2019-05-19T13:53:27Z</time>
      </trkpt>
      <trkpt lat="43.37016" lon="5.5361">
        <ele>312.56579589844</ele>
        <time>2019-05-19T13:53:40Z</time>
      </trkpt>
      <trkpt lat="43.37017" lon="5.53622">
        <ele>313.52722167969</ele>
        <time>2019-05-19T13:53:53Z</time>
      </trkpt>
      <trkpt lat="43.37016" lon="5.53622">
        <ele>313.52722167969</ele>
        <time>2019-05-19T13:54:04Z</time>
      </trkpt>
      <trkpt lat="43.37016" lon="5.53622">
        <ele>314.0078125</ele>
        <time>2019-05-19T13:54:14Z</time>
      </trkpt>
    </trkseg>
  </trk>
</gpx>